<?xml version="1.0" encoding="UTF-8" standalone="no" ?>
<gpx xmlns="http://www.topografix.com/GPX/1/1" xmlns:xsi="http://www.w3.org/2001/XMLSchema-instance" xsi:schemaLocation="http://www.topografix.com/GPX/1/1 http://www.topografix.com/GPX/1/1/gpx.xsd" version="1.1" creator="VisuGPX - https://www.visugpx.com">
  <metadata>
    <name>deuxième entrainement avec Benoit</name>
    <desc><![CDATA[promenade autour de Delle en suivant les ronds Jaunes.]]></desc>
  </metadata>
  <wpt lat="47.50837" lon="6.99174">
    <ele>388.79</ele>
    <name><![CDATA[0000008]]></name>
    <type><![CDATA[Point de départ]]></type>
  </wpt>
  <wpt lat="47.50822" lon="6.99167">
    <ele>414.13</ele>
    <name><![CDATA[0000009]]></name>
    <desc><![CDATA[<p><br /><h3>Nom: Segment: 1</h3><br />Heure de départ: 01/28/2018 13:59<br/>Heure d'arrivée: 01/28/2018 17:16<br/>Distance: 16,6km (03:16)<br/>Temps déplacement: 02:34<br/>Vitesse moyenne: 5,04 km/h<br/>Vitesse moyenne mouv.: 6,36 km/h<br/>Vitesse Max.: 12,12 km/h<br/>Altitude minimale: 354 m<br/>Altitude maximale: 525 m<br/>Vitesse de montée: 348,6 m/h<br/>Vitesse de descente: -384,5 m/h<br/>Gain d'altitude: 587 m<br/>Perte d'altitude: -564 m<br/>Temps de montée: 01:41<br/>Temps de descente: 01:28<br/></p>]]></desc>
    <type><![CDATA[Point d'arrivée]]></type>
  </wpt>
  <trk>
    <name><![CDATA[2018-01-28 13:59]]></name>
    <desc><![CDATA[<p>Heure de départ: 01/28/2018 13:59<br/>Heure d'arrivée: 01/28/2018 17:16<br/>Distance: 16,6 km (03:16)<br/>Temps déplacement: 02:34<br/>Vitesse moyenne: 5,04 km/h<br/>Vitesse moyenne mouv.: 6,42 km/h<br/>Vitesse Max.: 12,12 km/h<br/>Altitude minimale: 354 m<br/>Altitude maximale: 525 m<br/>Vitesse de montée: 304 m/h<br/>Vitesse de descente: -327,3 m/h<br/>Gain d'altitude: 522 m<br/>Perte d'altitude: -505 m<br/>Temps de montée: 01:43<br/>Temps de descente: 01:32<br/></p><hr align="center" width="480" style="height: 2px; width: 517px"/>]]></desc>
    <trkseg>
      <trkpt lat="47.50837" lon="6.99174">
        <ele>388.79</ele>
        <time>2018-01-28T12:59:58Z</time>
      </trkpt>
      <trkpt lat="47.5082" lon="6.99207">
        <ele>402.79</ele>
        <time>2018-01-28T13:00:00Z</time>
      </trkpt>
      <trkpt lat="47.50819" lon="6.9918">
        <ele>409.49</ele>
        <time>2018-01-28T13:02:01Z</time>
      </trkpt>
      <trkpt lat="47.50803" lon="6.99166">
        <ele>403.79</ele>
        <time>2018-01-28T13:06:45Z</time>
      </trkpt>
      <trkpt lat="47.50786" lon="6.99177">
        <ele>403.87</ele>
        <time>2018-01-28T13:06:59Z</time>
      </trkpt>
      <trkpt lat="47.50769" lon="6.99188">
        <ele>403.79</ele>
        <time>2018-01-28T13:07:13Z</time>
      </trkpt>
      <trkpt lat="47.50752" lon="6.99204">
        <ele>401.88</ele>
        <time>2018-01-28T13:07:27Z</time>
      </trkpt>
      <trkpt lat="47.50737" lon="6.99222">
        <ele>400.79</ele>
        <time>2018-01-28T13:07:43Z</time>
      </trkpt>
      <trkpt lat="47.50722" lon="6.99239">
        <ele>398.8</ele>
        <time>2018-01-28T13:07:57Z</time>
      </trkpt>
      <trkpt lat="47.50705" lon="6.99256">
        <ele>397.09</ele>
        <time>2018-01-28T13:08:11Z</time>
      </trkpt>
      <trkpt lat="47.50687" lon="6.99271">
        <ele>395.09</ele>
        <time>2018-01-28T13:08:25Z</time>
      </trkpt>
      <trkpt lat="47.50671" lon="6.99284">
        <ele>392.88</ele>
        <time>2018-01-28T13:08:39Z</time>
      </trkpt>
      <trkpt lat="47.50662" lon="6.99259">
        <ele>394.79</ele>
        <time>2018-01-28T13:09:03Z</time>
      </trkpt>
      <trkpt lat="47.50664" lon="6.99229">
        <ele>395.79</ele>
        <time>2018-01-28T13:09:19Z</time>
      </trkpt>
      <trkpt lat="47.50671" lon="6.99204">
        <ele>398.45</ele>
        <time>2018-01-28T13:09:31Z</time>
      </trkpt>
      <trkpt lat="47.50676" lon="6.99178">
        <ele>398.79</ele>
        <time>2018-01-28T13:09:42Z</time>
      </trkpt>
      <trkpt lat="47.50682" lon="6.99151">
        <ele>399.79</ele>
        <time>2018-01-28T13:09:56Z</time>
      </trkpt>
      <trkpt lat="47.50688" lon="6.99124">
        <ele>401.79</ele>
        <time>2018-01-28T13:10:10Z</time>
      </trkpt>
      <trkpt lat="47.50694" lon="6.99095">
        <ele>402.7</ele>
        <time>2018-01-28T13:10:24Z</time>
      </trkpt>
      <trkpt lat="47.50698" lon="6.99065">
        <ele>403.72</ele>
        <time>2018-01-28T13:10:38Z</time>
      </trkpt>
      <trkpt lat="47.50702" lon="6.99039">
        <ele>404.78</ele>
        <time>2018-01-28T13:10:50Z</time>
      </trkpt>
      <trkpt lat="47.50709" lon="6.99009">
        <ele>411.33</ele>
        <time>2018-01-28T13:11:06Z</time>
      </trkpt>
      <trkpt lat="47.50716" lon="6.9898">
        <ele>413.79</ele>
        <time>2018-01-28T13:11:18Z</time>
      </trkpt>
      <trkpt lat="47.50722" lon="6.9895">
        <ele>415.78</ele>
        <time>2018-01-28T13:11:32Z</time>
      </trkpt>
      <trkpt lat="47.50728" lon="6.98923">
        <ele>413.89</ele>
        <time>2018-01-28T13:11:44Z</time>
      </trkpt>
      <trkpt lat="47.50732" lon="6.98894">
        <ele>413.8</ele>
        <time>2018-01-28T13:11:58Z</time>
      </trkpt>
      <trkpt lat="47.50737" lon="6.98865">
        <ele>412.82</ele>
        <time>2018-01-28T13:12:12Z</time>
      </trkpt>
      <trkpt lat="47.50743" lon="6.98837">
        <ele>412.09</ele>
        <time>2018-01-28T13:12:24Z</time>
      </trkpt>
      <trkpt lat="47.50748" lon="6.9881">
        <ele>414.78</ele>
        <time>2018-01-28T13:12:38Z</time>
      </trkpt>
      <trkpt lat="47.50755" lon="6.98783">
        <ele>414.8</ele>
        <time>2018-01-28T13:12:50Z</time>
      </trkpt>
      <trkpt lat="47.50761" lon="6.98757">
        <ele>414.73</ele>
        <time>2018-01-28T13:13:02Z</time>
      </trkpt>
      <trkpt lat="47.50766" lon="6.9873">
        <ele>413.79</ele>
        <time>2018-01-28T13:13:14Z</time>
      </trkpt>
      <trkpt lat="47.50771" lon="6.98702">
        <ele>413.79</ele>
        <time>2018-01-28T13:13:28Z</time>
      </trkpt>
      <trkpt lat="47.50778" lon="6.98674">
        <ele>418.39</ele>
        <time>2018-01-28T13:13:44Z</time>
      </trkpt>
      <trkpt lat="47.50782" lon="6.98647">
        <ele>417.9</ele>
        <time>2018-01-28T13:13:56Z</time>
      </trkpt>
      <trkpt lat="47.50788" lon="6.98622">
        <ele>417.88</ele>
        <time>2018-01-28T13:14:10Z</time>
      </trkpt>
      <trkpt lat="47.50795" lon="6.98591">
        <ele>418.79</ele>
        <time>2018-01-28T13:14:22Z</time>
      </trkpt>
      <trkpt lat="47.50798" lon="6.98565">
        <ele>416.91</ele>
        <time>2018-01-28T13:14:34Z</time>
      </trkpt>
      <trkpt lat="47.50803" lon="6.98535">
        <ele>413.83</ele>
        <time>2018-01-28T13:14:46Z</time>
      </trkpt>
      <trkpt lat="47.50801" lon="6.98507">
        <ele>410.21</ele>
        <time>2018-01-28T13:14:58Z</time>
      </trkpt>
      <trkpt lat="47.50797" lon="6.98479">
        <ele>407.82</ele>
        <time>2018-01-28T13:15:10Z</time>
      </trkpt>
      <trkpt lat="47.50792" lon="6.98451">
        <ele>406.71</ele>
        <time>2018-01-28T13:15:22Z</time>
      </trkpt>
      <trkpt lat="47.50789" lon="6.98423">
        <ele>407.79</ele>
        <time>2018-01-28T13:15:34Z</time>
      </trkpt>
      <trkpt lat="47.50787" lon="6.98396">
        <ele>406.85</ele>
        <time>2018-01-28T13:15:46Z</time>
      </trkpt>
      <trkpt lat="47.50788" lon="6.98367">
        <ele>410.46</ele>
        <time>2018-01-28T13:16:02Z</time>
      </trkpt>
      <trkpt lat="47.50782" lon="6.98339">
        <ele>414.38</ele>
        <time>2018-01-28T13:16:18Z</time>
      </trkpt>
      <trkpt lat="47.50784" lon="6.98312">
        <ele>418.36</ele>
        <time>2018-01-28T13:16:30Z</time>
      </trkpt>
      <trkpt lat="47.5077" lon="6.98293">
        <ele>418.49</ele>
        <time>2018-01-28T13:16:48Z</time>
      </trkpt>
      <trkpt lat="47.50757" lon="6.98274">
        <ele>420.88</ele>
        <time>2018-01-28T13:17:06Z</time>
      </trkpt>
      <trkpt lat="47.50771" lon="6.98251">
        <ele>424.03</ele>
        <time>2018-01-28T13:17:32Z</time>
      </trkpt>
      <trkpt lat="47.50785" lon="6.98233">
        <ele>432.2</ele>
        <time>2018-01-28T13:17:52Z</time>
      </trkpt>
      <trkpt lat="47.50799" lon="6.98215">
        <ele>434.78</ele>
        <time>2018-01-28T13:18:06Z</time>
      </trkpt>
      <trkpt lat="47.50816" lon="6.98193">
        <ele>433.77</ele>
        <time>2018-01-28T13:18:24Z</time>
      </trkpt>
      <trkpt lat="47.50832" lon="6.98179">
        <ele>433.82</ele>
        <time>2018-01-28T13:18:36Z</time>
      </trkpt>
      <trkpt lat="47.50845" lon="6.98156">
        <ele>434.79</ele>
        <time>2018-01-28T13:18:50Z</time>
      </trkpt>
      <trkpt lat="47.50858" lon="6.98136">
        <ele>435.86</ele>
        <time>2018-01-28T13:19:00Z</time>
      </trkpt>
      <trkpt lat="47.50874" lon="6.98119">
        <ele>435.09</ele>
        <time>2018-01-28T13:19:14Z</time>
      </trkpt>
      <trkpt lat="47.50895" lon="6.98103">
        <ele>431.59</ele>
        <time>2018-01-28T13:19:30Z</time>
      </trkpt>
      <trkpt lat="47.50912" lon="6.9809">
        <ele>429.15</ele>
        <time>2018-01-28T13:19:42Z</time>
      </trkpt>
      <trkpt lat="47.50929" lon="6.98075">
        <ele>428.5</ele>
        <time>2018-01-28T13:19:56Z</time>
      </trkpt>
      <trkpt lat="47.50945" lon="6.98061">
        <ele>430.51</ele>
        <time>2018-01-28T13:20:08Z</time>
      </trkpt>
      <trkpt lat="47.50964" lon="6.98046">
        <ele>428.51</ele>
        <time>2018-01-28T13:20:22Z</time>
      </trkpt>
      <trkpt lat="47.50984" lon="6.98039">
        <ele>429.4</ele>
        <time>2018-01-28T13:20:36Z</time>
      </trkpt>
      <trkpt lat="47.51003" lon="6.98029">
        <ele>427.8</ele>
        <time>2018-01-28T13:20:48Z</time>
      </trkpt>
      <trkpt lat="47.51019" lon="6.98015">
        <ele>428.08</ele>
        <time>2018-01-28T13:21:00Z</time>
      </trkpt>
      <trkpt lat="47.51037" lon="6.98001">
        <ele>428.79</ele>
        <time>2018-01-28T13:21:16Z</time>
      </trkpt>
      <trkpt lat="47.51053" lon="6.97991">
        <ele>429.7</ele>
        <time>2018-01-28T13:21:30Z</time>
      </trkpt>
      <trkpt lat="47.51075" lon="6.97988">
        <ele>428.09</ele>
        <time>2018-01-28T13:21:42Z</time>
      </trkpt>
      <trkpt lat="47.51093" lon="6.97991">
        <ele>426.02</ele>
        <time>2018-01-28T13:21:54Z</time>
      </trkpt>
      <trkpt lat="47.51111" lon="6.97992">
        <ele>419.32</ele>
        <time>2018-01-28T13:22:04Z</time>
      </trkpt>
      <trkpt lat="47.51126" lon="6.97975">
        <ele>417.75</ele>
        <time>2018-01-28T13:22:14Z</time>
      </trkpt>
      <trkpt lat="47.51137" lon="6.97953">
        <ele>417.99</ele>
        <time>2018-01-28T13:22:26Z</time>
      </trkpt>
      <trkpt lat="47.51147" lon="6.97926">
        <ele>419.7</ele>
        <time>2018-01-28T13:22:38Z</time>
      </trkpt>
      <trkpt lat="47.51155" lon="6.979">
        <ele>421.75</ele>
        <time>2018-01-28T13:22:56Z</time>
      </trkpt>
      <trkpt lat="47.51166" lon="6.97873">
        <ele>424.75</ele>
        <time>2018-01-28T13:23:14Z</time>
      </trkpt>
      <trkpt lat="47.5118" lon="6.97852">
        <ele>425.82</ele>
        <time>2018-01-28T13:23:26Z</time>
      </trkpt>
      <trkpt lat="47.51188" lon="6.97826">
        <ele>426.78</ele>
        <time>2018-01-28T13:23:38Z</time>
      </trkpt>
      <trkpt lat="47.51191" lon="6.97799">
        <ele>427.87</ele>
        <time>2018-01-28T13:23:52Z</time>
      </trkpt>
      <trkpt lat="47.51192" lon="6.97772">
        <ele>431.75</ele>
        <time>2018-01-28T13:24:10Z</time>
      </trkpt>
      <trkpt lat="47.51204" lon="6.9775">
        <ele>436.1</ele>
        <time>2018-01-28T13:24:38Z</time>
      </trkpt>
      <trkpt lat="47.5122" lon="6.9773">
        <ele>441.43</ele>
        <time>2018-01-28T13:24:54Z</time>
      </trkpt>
      <trkpt lat="47.51236" lon="6.97717">
        <ele>432.22</ele>
        <time>2018-01-28T13:25:12Z</time>
      </trkpt>
      <trkpt lat="47.51249" lon="6.97737">
        <ele>431.86</ele>
        <time>2018-01-28T13:25:34Z</time>
      </trkpt>
      <trkpt lat="47.51265" lon="6.97757">
        <ele>426.72</ele>
        <time>2018-01-28T13:25:50Z</time>
      </trkpt>
      <trkpt lat="47.51285" lon="6.97766">
        <ele>421.84</ele>
        <time>2018-01-28T13:26:04Z</time>
      </trkpt>
      <trkpt lat="47.51303" lon="6.97775">
        <ele>421.77</ele>
        <time>2018-01-28T13:26:12Z</time>
      </trkpt>
      <trkpt lat="47.51323" lon="6.97781">
        <ele>419.88</ele>
        <time>2018-01-28T13:26:22Z</time>
      </trkpt>
      <trkpt lat="47.51343" lon="6.97779">
        <ele>417.21</ele>
        <time>2018-01-28T13:26:32Z</time>
      </trkpt>
      <trkpt lat="47.5136" lon="6.9777">
        <ele>415.77</ele>
        <time>2018-01-28T13:26:44Z</time>
      </trkpt>
      <trkpt lat="47.5138" lon="6.97772">
        <ele>413.83</ele>
        <time>2018-01-28T13:27:02Z</time>
      </trkpt>
      <trkpt lat="47.51395" lon="6.97756">
        <ele>414.4</ele>
        <time>2018-01-28T13:27:16Z</time>
      </trkpt>
      <trkpt lat="47.51407" lon="6.97732">
        <ele>423.46</ele>
        <time>2018-01-28T13:27:34Z</time>
      </trkpt>
      <trkpt lat="47.51414" lon="6.97702">
        <ele>426.42</ele>
        <time>2018-01-28T13:27:48Z</time>
      </trkpt>
      <trkpt lat="47.51408" lon="6.97676">
        <ele>426.69</ele>
        <time>2018-01-28T13:28:06Z</time>
      </trkpt>
      <trkpt lat="47.514" lon="6.97649">
        <ele>428.79</ele>
        <time>2018-01-28T13:28:20Z</time>
      </trkpt>
      <trkpt lat="47.51397" lon="6.97619">
        <ele>429.79</ele>
        <time>2018-01-28T13:28:32Z</time>
      </trkpt>
      <trkpt lat="47.51388" lon="6.97592">
        <ele>430.91</ele>
        <time>2018-01-28T13:28:52Z</time>
      </trkpt>
      <trkpt lat="47.5138" lon="6.97568">
        <ele>431.88</ele>
        <time>2018-01-28T13:29:06Z</time>
      </trkpt>
      <trkpt lat="47.51386" lon="6.97542">
        <ele>433.88</ele>
        <time>2018-01-28T13:29:24Z</time>
      </trkpt>
      <trkpt lat="47.51397" lon="6.97518">
        <ele>440.73</ele>
        <time>2018-01-28T13:29:46Z</time>
      </trkpt>
      <trkpt lat="47.51414" lon="6.97497">
        <ele>435.39</ele>
        <time>2018-01-28T13:30:16Z</time>
      </trkpt>
      <trkpt lat="47.51431" lon="6.97483">
        <ele>439.28</ele>
        <time>2018-01-28T13:30:34Z</time>
      </trkpt>
      <trkpt lat="47.51447" lon="6.97469">
        <ele>435.92</ele>
        <time>2018-01-28T13:31:00Z</time>
      </trkpt>
      <trkpt lat="47.51465" lon="6.97466">
        <ele>434.57</ele>
        <time>2018-01-28T13:31:14Z</time>
      </trkpt>
      <trkpt lat="47.51483" lon="6.97457">
        <ele>434.83</ele>
        <time>2018-01-28T13:31:26Z</time>
      </trkpt>
      <trkpt lat="47.51501" lon="6.97448">
        <ele>433.81</ele>
        <time>2018-01-28T13:31:40Z</time>
      </trkpt>
      <trkpt lat="47.51513" lon="6.97428">
        <ele>435.67</ele>
        <time>2018-01-28T13:31:52Z</time>
      </trkpt>
      <trkpt lat="47.51522" lon="6.974">
        <ele>438.69</ele>
        <time>2018-01-28T13:32:04Z</time>
      </trkpt>
      <trkpt lat="47.51523" lon="6.97372">
        <ele>432.83</ele>
        <time>2018-01-28T13:32:20Z</time>
      </trkpt>
      <trkpt lat="47.51513" lon="6.97347">
        <ele>432.02</ele>
        <time>2018-01-28T13:32:34Z</time>
      </trkpt>
      <trkpt lat="47.51504" lon="6.97322">
        <ele>436.17</ele>
        <time>2018-01-28T13:32:52Z</time>
      </trkpt>
      <trkpt lat="47.51508" lon="6.97296">
        <ele>438.81</ele>
        <time>2018-01-28T13:33:08Z</time>
      </trkpt>
      <trkpt lat="47.51516" lon="6.97272">
        <ele>441.95</ele>
        <time>2018-01-28T13:33:24Z</time>
      </trkpt>
      <trkpt lat="47.51525" lon="6.97248">
        <ele>444.06</ele>
        <time>2018-01-28T13:33:34Z</time>
      </trkpt>
      <trkpt lat="47.51531" lon="6.97223">
        <ele>439.1</ele>
        <time>2018-01-28T13:33:46Z</time>
      </trkpt>
      <trkpt lat="47.51541" lon="6.972">
        <ele>430.41</ele>
        <time>2018-01-28T13:34:02Z</time>
      </trkpt>
      <trkpt lat="47.51555" lon="6.9718">
        <ele>429.49</ele>
        <time>2018-01-28T13:34:16Z</time>
      </trkpt>
      <trkpt lat="47.51569" lon="6.97163">
        <ele>429.22</ele>
        <time>2018-01-28T13:34:30Z</time>
      </trkpt>
      <trkpt lat="47.5159" lon="6.97158">
        <ele>427.79</ele>
        <time>2018-01-28T13:34:46Z</time>
      </trkpt>
      <trkpt lat="47.51609" lon="6.97164">
        <ele>427.98</ele>
        <time>2018-01-28T13:34:59Z</time>
      </trkpt>
      <trkpt lat="47.51628" lon="6.97165">
        <ele>421.93</ele>
        <time>2018-01-28T13:35:11Z</time>
      </trkpt>
      <trkpt lat="47.51647" lon="6.97163">
        <ele>420.8</ele>
        <time>2018-01-28T13:35:23Z</time>
      </trkpt>
      <trkpt lat="47.51666" lon="6.97157">
        <ele>416.66</ele>
        <time>2018-01-28T13:35:36Z</time>
      </trkpt>
      <trkpt lat="47.51687" lon="6.97157">
        <ele>420.05</ele>
        <time>2018-01-28T13:35:50Z</time>
      </trkpt>
      <trkpt lat="47.51704" lon="6.9715">
        <ele>421.77</ele>
        <time>2018-01-28T13:36:02Z</time>
      </trkpt>
      <trkpt lat="47.51725" lon="6.97157">
        <ele>423.73</ele>
        <time>2018-01-28T13:36:16Z</time>
      </trkpt>
      <trkpt lat="47.51743" lon="6.97167">
        <ele>421.19</ele>
        <time>2018-01-28T13:36:28Z</time>
      </trkpt>
      <trkpt lat="47.51765" lon="6.97162">
        <ele>416.92</ele>
        <time>2018-01-28T13:36:38Z</time>
      </trkpt>
      <trkpt lat="47.51783" lon="6.97154">
        <ele>415.17</ele>
        <time>2018-01-28T13:36:48Z</time>
      </trkpt>
      <trkpt lat="47.51802" lon="6.97149">
        <ele>408.52</ele>
        <time>2018-01-28T13:37:00Z</time>
      </trkpt>
      <trkpt lat="47.51823" lon="6.97143">
        <ele>403.1</ele>
        <time>2018-01-28T13:37:16Z</time>
      </trkpt>
      <trkpt lat="47.51838" lon="6.97127">
        <ele>397.22</ele>
        <time>2018-01-28T13:37:28Z</time>
      </trkpt>
      <trkpt lat="47.51847" lon="6.97101">
        <ele>394.8</ele>
        <time>2018-01-28T13:37:40Z</time>
      </trkpt>
      <trkpt lat="47.51852" lon="6.97073">
        <ele>393.79</ele>
        <time>2018-01-28T13:37:52Z</time>
      </trkpt>
      <trkpt lat="47.51854" lon="6.97045">
        <ele>392.8</ele>
        <time>2018-01-28T13:38:04Z</time>
      </trkpt>
      <trkpt lat="47.51857" lon="6.97014">
        <ele>392.79</ele>
        <time>2018-01-28T13:38:18Z</time>
      </trkpt>
      <trkpt lat="47.51858" lon="6.96983">
        <ele>392.03</ele>
        <time>2018-01-28T13:38:32Z</time>
      </trkpt>
      <trkpt lat="47.51862" lon="6.96955">
        <ele>391.79</ele>
        <time>2018-01-28T13:38:45Z</time>
      </trkpt>
      <trkpt lat="47.51865" lon="6.96925">
        <ele>391.79</ele>
        <time>2018-01-28T13:38:59Z</time>
      </trkpt>
      <trkpt lat="47.5187" lon="6.96895">
        <ele>391.55</ele>
        <time>2018-01-28T13:39:13Z</time>
      </trkpt>
      <trkpt lat="47.51871" lon="6.96865">
        <ele>390.8</ele>
        <time>2018-01-28T13:39:27Z</time>
      </trkpt>
      <trkpt lat="47.5187" lon="6.96835">
        <ele>389.88</ele>
        <time>2018-01-28T13:39:41Z</time>
      </trkpt>
      <trkpt lat="47.51877" lon="6.96808">
        <ele>391.79</ele>
        <time>2018-01-28T13:39:55Z</time>
      </trkpt>
      <trkpt lat="47.51881" lon="6.96781">
        <ele>391.79</ele>
        <time>2018-01-28T13:40:07Z</time>
      </trkpt>
      <trkpt lat="47.51887" lon="6.96754">
        <ele>391.09</ele>
        <time>2018-01-28T13:40:19Z</time>
      </trkpt>
      <trkpt lat="47.51891" lon="6.96727">
        <ele>390.79</ele>
        <time>2018-01-28T13:40:31Z</time>
      </trkpt>
      <trkpt lat="47.51896" lon="6.967">
        <ele>390.78</ele>
        <time>2018-01-28T13:40:45Z</time>
      </trkpt>
      <trkpt lat="47.51898" lon="6.96671">
        <ele>391.79</ele>
        <time>2018-01-28T13:40:59Z</time>
      </trkpt>
      <trkpt lat="47.519" lon="6.96644">
        <ele>392.76</ele>
        <time>2018-01-28T13:41:11Z</time>
      </trkpt>
      <trkpt lat="47.51899" lon="6.96614">
        <ele>391.8</ele>
        <time>2018-01-28T13:41:25Z</time>
      </trkpt>
      <trkpt lat="47.51894" lon="6.96587">
        <ele>391.7</ele>
        <time>2018-01-28T13:41:42Z</time>
      </trkpt>
      <trkpt lat="47.51891" lon="6.96556">
        <ele>394.11</ele>
        <time>2018-01-28T13:42:00Z</time>
      </trkpt>
      <trkpt lat="47.51892" lon="6.96524">
        <ele>397.51</ele>
        <time>2018-01-28T13:42:16Z</time>
      </trkpt>
      <trkpt lat="47.5189" lon="6.96494">
        <ele>399.17</ele>
        <time>2018-01-28T13:42:31Z</time>
      </trkpt>
      <trkpt lat="47.51893" lon="6.96467">
        <ele>400.7</ele>
        <time>2018-01-28T13:42:43Z</time>
      </trkpt>
      <trkpt lat="47.519" lon="6.9644">
        <ele>400.87</ele>
        <time>2018-01-28T13:42:55Z</time>
      </trkpt>
      <trkpt lat="47.51902" lon="6.96414">
        <ele>400.49</ele>
        <time>2018-01-28T13:43:07Z</time>
      </trkpt>
      <trkpt lat="47.51901" lon="6.96385">
        <ele>397.76</ele>
        <time>2018-01-28T13:43:29Z</time>
      </trkpt>
      <trkpt lat="47.51894" lon="6.9636">
        <ele>397.09</ele>
        <time>2018-01-28T13:43:33Z</time>
      </trkpt>
      <trkpt lat="47.51884" lon="6.96338">
        <ele>391.93</ele>
        <time>2018-01-28T13:43:41Z</time>
      </trkpt>
      <trkpt lat="47.51875" lon="6.96315">
        <ele>389.12</ele>
        <time>2018-01-28T13:43:51Z</time>
      </trkpt>
      <trkpt lat="47.51866" lon="6.96288">
        <ele>387.79</ele>
        <time>2018-01-28T13:44:05Z</time>
      </trkpt>
      <trkpt lat="47.51862" lon="6.96258">
        <ele>390.7</ele>
        <time>2018-01-28T13:44:21Z</time>
      </trkpt>
      <trkpt lat="47.51861" lon="6.96229">
        <ele>388.7</ele>
        <time>2018-01-28T13:44:35Z</time>
      </trkpt>
      <trkpt lat="47.51862" lon="6.962">
        <ele>390.02</ele>
        <time>2018-01-28T13:44:51Z</time>
      </trkpt>
      <trkpt lat="47.51867" lon="6.96171">
        <ele>392.48</ele>
        <time>2018-01-28T13:45:07Z</time>
      </trkpt>
      <trkpt lat="47.51874" lon="6.96144">
        <ele>390.18</ele>
        <time>2018-01-28T13:45:19Z</time>
      </trkpt>
      <trkpt lat="47.51882" lon="6.96121">
        <ele>385.89</ele>
        <time>2018-01-28T13:45:31Z</time>
      </trkpt>
      <trkpt lat="47.51901" lon="6.96114">
        <ele>388.46</ele>
        <time>2018-01-28T13:45:51Z</time>
      </trkpt>
      <trkpt lat="47.5192" lon="6.9611">
        <ele>389.46</ele>
        <time>2018-01-28T13:46:05Z</time>
      </trkpt>
      <trkpt lat="47.51941" lon="6.96108">
        <ele>388.8</ele>
        <time>2018-01-28T13:46:19Z</time>
      </trkpt>
      <trkpt lat="47.5196" lon="6.96105">
        <ele>388.02</ele>
        <time>2018-01-28T13:46:31Z</time>
      </trkpt>
      <trkpt lat="47.51974" lon="6.96085">
        <ele>386.88</ele>
        <time>2018-01-28T13:46:41Z</time>
      </trkpt>
      <trkpt lat="47.51981" lon="6.96061">
        <ele>386.76</ele>
        <time>2018-01-28T13:46:53Z</time>
      </trkpt>
      <trkpt lat="47.51986" lon="6.9603">
        <ele>388.78</ele>
        <time>2018-01-28T13:47:07Z</time>
      </trkpt>
      <trkpt lat="47.51985" lon="6.96003">
        <ele>389.66</ele>
        <time>2018-01-28T13:47:25Z</time>
      </trkpt>
      <trkpt lat="47.51977" lon="6.95975">
        <ele>392.47</ele>
        <time>2018-01-28T13:47:39Z</time>
      </trkpt>
      <trkpt lat="47.51979" lon="6.95949">
        <ele>394.69</ele>
        <time>2018-01-28T13:47:51Z</time>
      </trkpt>
      <trkpt lat="47.51985" lon="6.95918">
        <ele>393.79</ele>
        <time>2018-01-28T13:48:03Z</time>
      </trkpt>
      <trkpt lat="47.51984" lon="6.95888">
        <ele>393.88</ele>
        <time>2018-01-28T13:48:15Z</time>
      </trkpt>
      <trkpt lat="47.5198" lon="6.95859">
        <ele>394.79</ele>
        <time>2018-01-28T13:48:31Z</time>
      </trkpt>
      <trkpt lat="47.51976" lon="6.95832">
        <ele>398.16</ele>
        <time>2018-01-28T13:48:45Z</time>
      </trkpt>
      <trkpt lat="47.51981" lon="6.95802">
        <ele>398.79</ele>
        <time>2018-01-28T13:48:57Z</time>
      </trkpt>
      <trkpt lat="47.51982" lon="6.95772">
        <ele>400.69</ele>
        <time>2018-01-28T13:49:11Z</time>
      </trkpt>
      <trkpt lat="47.5198" lon="6.95745">
        <ele>400.79</ele>
        <time>2018-01-28T13:49:21Z</time>
      </trkpt>
      <trkpt lat="47.51983" lon="6.95716">
        <ele>399.81</ele>
        <time>2018-01-28T13:49:33Z</time>
      </trkpt>
      <trkpt lat="47.51986" lon="6.95687">
        <ele>401.7</ele>
        <time>2018-01-28T13:49:45Z</time>
      </trkpt>
      <trkpt lat="47.51978" lon="6.9566">
        <ele>403.79</ele>
        <time>2018-01-28T13:49:59Z</time>
      </trkpt>
      <trkpt lat="47.51983" lon="6.95629">
        <ele>405.02</ele>
        <time>2018-01-28T13:50:11Z</time>
      </trkpt>
      <trkpt lat="47.51983" lon="6.95602">
        <ele>405.52</ele>
        <time>2018-01-28T13:50:23Z</time>
      </trkpt>
      <trkpt lat="47.51984" lon="6.95575">
        <ele>408.48</ele>
        <time>2018-01-28T13:50:35Z</time>
      </trkpt>
      <trkpt lat="47.51985" lon="6.95546">
        <ele>409.79</ele>
        <time>2018-01-28T13:50:47Z</time>
      </trkpt>
      <trkpt lat="47.51984" lon="6.95519">
        <ele>409.88</ele>
        <time>2018-01-28T13:50:59Z</time>
      </trkpt>
      <trkpt lat="47.5198" lon="6.95492">
        <ele>410.17</ele>
        <time>2018-01-28T13:51:09Z</time>
      </trkpt>
      <trkpt lat="47.5198" lon="6.95461">
        <ele>408.82</ele>
        <time>2018-01-28T13:51:25Z</time>
      </trkpt>
      <trkpt lat="47.5198" lon="6.95433">
        <ele>408.61</ele>
        <time>2018-01-28T13:51:37Z</time>
      </trkpt>
      <trkpt lat="47.51981" lon="6.95402">
        <ele>406.52</ele>
        <time>2018-01-28T13:51:49Z</time>
      </trkpt>
      <trkpt lat="47.51981" lon="6.95373">
        <ele>406.79</ele>
        <time>2018-01-28T13:51:59Z</time>
      </trkpt>
      <trkpt lat="47.51979" lon="6.95343">
        <ele>407.7</ele>
        <time>2018-01-28T13:52:13Z</time>
      </trkpt>
      <trkpt lat="47.51982" lon="6.95315">
        <ele>407.82</ele>
        <time>2018-01-28T13:52:25Z</time>
      </trkpt>
      <trkpt lat="47.51981" lon="6.95288">
        <ele>408.49</ele>
        <time>2018-01-28T13:52:37Z</time>
      </trkpt>
      <trkpt lat="47.51981" lon="6.9526">
        <ele>407.82</ele>
        <time>2018-01-28T13:52:49Z</time>
      </trkpt>
      <trkpt lat="47.51979" lon="6.95233">
        <ele>408.79</ele>
        <time>2018-01-28T13:52:59Z</time>
      </trkpt>
      <trkpt lat="47.51977" lon="6.95206">
        <ele>408.77</ele>
        <time>2018-01-28T13:53:15Z</time>
      </trkpt>
      <trkpt lat="47.51975" lon="6.95179">
        <ele>411.68</ele>
        <time>2018-01-28T13:53:27Z</time>
      </trkpt>
      <trkpt lat="47.51974" lon="6.95149">
        <ele>414.46</ele>
        <time>2018-01-28T13:53:39Z</time>
      </trkpt>
      <trkpt lat="47.51978" lon="6.95118">
        <ele>415.78</ele>
        <time>2018-01-28T13:53:51Z</time>
      </trkpt>
      <trkpt lat="47.51983" lon="6.95089">
        <ele>416.48</ele>
        <time>2018-01-28T13:54:03Z</time>
      </trkpt>
      <trkpt lat="47.51981" lon="6.95063">
        <ele>417.06</ele>
        <time>2018-01-28T13:54:15Z</time>
      </trkpt>
      <trkpt lat="47.51976" lon="6.95035">
        <ele>409.23</ele>
        <time>2018-01-28T13:54:29Z</time>
      </trkpt>
      <trkpt lat="47.51959" lon="6.95021">
        <ele>408.71</ele>
        <time>2018-01-28T13:54:51Z</time>
      </trkpt>
      <trkpt lat="47.51941" lon="6.95007">
        <ele>408.09</ele>
        <time>2018-01-28T13:55:05Z</time>
      </trkpt>
      <trkpt lat="47.51924" lon="6.94997">
        <ele>405.89</ele>
        <time>2018-01-28T13:55:17Z</time>
      </trkpt>
      <trkpt lat="47.51905" lon="6.94986">
        <ele>404.87</ele>
        <time>2018-01-28T13:55:29Z</time>
      </trkpt>
      <trkpt lat="47.51889" lon="6.94973">
        <ele>412.72</ele>
        <time>2018-01-28T13:55:47Z</time>
      </trkpt>
      <trkpt lat="47.5187" lon="6.94962">
        <ele>412.91</ele>
        <time>2018-01-28T13:55:59Z</time>
      </trkpt>
      <trkpt lat="47.5185" lon="6.94956">
        <ele>414.75</ele>
        <time>2018-01-28T13:56:17Z</time>
      </trkpt>
      <trkpt lat="47.51832" lon="6.94944">
        <ele>416.55</ele>
        <time>2018-01-28T13:56:31Z</time>
      </trkpt>
      <trkpt lat="47.51816" lon="6.94932">
        <ele>417.74</ele>
        <time>2018-01-28T13:56:43Z</time>
      </trkpt>
      <trkpt lat="47.51796" lon="6.94919">
        <ele>415.18</ele>
        <time>2018-01-28T13:56:59Z</time>
      </trkpt>
      <trkpt lat="47.51779" lon="6.94907">
        <ele>415.06</ele>
        <time>2018-01-28T13:57:11Z</time>
      </trkpt>
      <trkpt lat="47.51759" lon="6.94902">
        <ele>415.76</ele>
        <time>2018-01-28T13:57:23Z</time>
      </trkpt>
      <trkpt lat="47.51744" lon="6.94886">
        <ele>415.4</ele>
        <time>2018-01-28T13:57:37Z</time>
      </trkpt>
      <trkpt lat="47.51726" lon="6.94881">
        <ele>416.73</ele>
        <time>2018-01-28T13:57:49Z</time>
      </trkpt>
      <trkpt lat="47.51704" lon="6.94883">
        <ele>415.81</ele>
        <time>2018-01-28T13:58:03Z</time>
      </trkpt>
      <trkpt lat="47.51685" lon="6.94883">
        <ele>414.29</ele>
        <time>2018-01-28T13:58:17Z</time>
      </trkpt>
      <trkpt lat="47.51665" lon="6.94883">
        <ele>414.09</ele>
        <time>2018-01-28T13:58:33Z</time>
      </trkpt>
      <trkpt lat="47.51643" lon="6.94887">
        <ele>412.94</ele>
        <time>2018-01-28T13:58:47Z</time>
      </trkpt>
      <trkpt lat="47.51624" lon="6.94896">
        <ele>415</ele>
        <time>2018-01-28T13:59:01Z</time>
      </trkpt>
      <trkpt lat="47.51605" lon="6.94903">
        <ele>413.44</ele>
        <time>2018-01-28T13:59:14Z</time>
      </trkpt>
      <trkpt lat="47.51587" lon="6.94911">
        <ele>413.88</ele>
        <time>2018-01-28T13:59:26Z</time>
      </trkpt>
      <trkpt lat="47.51567" lon="6.94922">
        <ele>412.98</ele>
        <time>2018-01-28T13:59:42Z</time>
      </trkpt>
      <trkpt lat="47.51548" lon="6.94926">
        <ele>416.75</ele>
        <time>2018-01-28T13:59:56Z</time>
      </trkpt>
      <trkpt lat="47.51529" lon="6.94922">
        <ele>418.08</ele>
        <time>2018-01-28T14:00:10Z</time>
      </trkpt>
      <trkpt lat="47.5151" lon="6.94929">
        <ele>420.53</ele>
        <time>2018-01-28T14:00:22Z</time>
      </trkpt>
      <trkpt lat="47.51489" lon="6.94936">
        <ele>423.47</ele>
        <time>2018-01-28T14:00:34Z</time>
      </trkpt>
      <trkpt lat="47.51471" lon="6.94941">
        <ele>421.14</ele>
        <time>2018-01-28T14:00:46Z</time>
      </trkpt>
      <trkpt lat="47.51452" lon="6.94948">
        <ele>425.37</ele>
        <time>2018-01-28T14:01:00Z</time>
      </trkpt>
      <trkpt lat="47.51433" lon="6.94948">
        <ele>423.51</ele>
        <time>2018-01-28T14:01:22Z</time>
      </trkpt>
      <trkpt lat="47.51414" lon="6.94953">
        <ele>423.09</ele>
        <time>2018-01-28T14:01:40Z</time>
      </trkpt>
      <trkpt lat="47.51394" lon="6.94949">
        <ele>423.48</ele>
        <time>2018-01-28T14:01:52Z</time>
      </trkpt>
      <trkpt lat="47.51374" lon="6.94954">
        <ele>422.87</ele>
        <time>2018-01-28T14:02:10Z</time>
      </trkpt>
      <trkpt lat="47.51355" lon="6.94947">
        <ele>420.88</ele>
        <time>2018-01-28T14:02:22Z</time>
      </trkpt>
      <trkpt lat="47.51333" lon="6.94951">
        <ele>420.87</ele>
        <time>2018-01-28T14:02:32Z</time>
      </trkpt>
      <trkpt lat="47.51314" lon="6.94954">
        <ele>420.69</ele>
        <time>2018-01-28T14:02:48Z</time>
      </trkpt>
      <trkpt lat="47.51297" lon="6.94942">
        <ele>426.3</ele>
        <time>2018-01-28T14:03:10Z</time>
      </trkpt>
      <trkpt lat="47.51293" lon="6.94913">
        <ele>428.07</ele>
        <time>2018-01-28T14:03:26Z</time>
      </trkpt>
      <trkpt lat="47.51279" lon="6.94893">
        <ele>429.79</ele>
        <time>2018-01-28T14:03:38Z</time>
      </trkpt>
      <trkpt lat="47.51261" lon="6.94875">
        <ele>429.09</ele>
        <time>2018-01-28T14:03:50Z</time>
      </trkpt>
      <trkpt lat="47.51244" lon="6.9486">
        <ele>426.82</ele>
        <time>2018-01-28T14:04:00Z</time>
      </trkpt>
      <trkpt lat="47.51225" lon="6.9485">
        <ele>427.08</ele>
        <time>2018-01-28T14:04:12Z</time>
      </trkpt>
      <trkpt lat="47.51208" lon="6.94843">
        <ele>425.88</ele>
        <time>2018-01-28T14:04:22Z</time>
      </trkpt>
      <trkpt lat="47.51189" lon="6.94834">
        <ele>424.88</ele>
        <time>2018-01-28T14:04:34Z</time>
      </trkpt>
      <trkpt lat="47.5117" lon="6.94827">
        <ele>423.88</ele>
        <time>2018-01-28T14:04:42Z</time>
      </trkpt>
      <trkpt lat="47.51152" lon="6.94829">
        <ele>423.79</ele>
        <time>2018-01-28T14:04:50Z</time>
      </trkpt>
      <trkpt lat="47.51138" lon="6.94852">
        <ele>422.12</ele>
        <time>2018-01-28T14:05:00Z</time>
      </trkpt>
      <trkpt lat="47.5113" lon="6.94877">
        <ele>419.1</ele>
        <time>2018-01-28T14:05:10Z</time>
      </trkpt>
      <trkpt lat="47.51129" lon="6.94908">
        <ele>418.09</ele>
        <time>2018-01-28T14:05:22Z</time>
      </trkpt>
      <trkpt lat="47.51133" lon="6.94937">
        <ele>418.76</ele>
        <time>2018-01-28T14:05:38Z</time>
      </trkpt>
      <trkpt lat="47.51135" lon="6.94966">
        <ele>415.74</ele>
        <time>2018-01-28T14:05:52Z</time>
      </trkpt>
      <trkpt lat="47.51132" lon="6.94994">
        <ele>415.01</ele>
        <time>2018-01-28T14:06:02Z</time>
      </trkpt>
      <trkpt lat="47.51125" lon="6.95022">
        <ele>416.06</ele>
        <time>2018-01-28T14:06:15Z</time>
      </trkpt>
      <trkpt lat="47.51114" lon="6.95046">
        <ele>413.89</ele>
        <time>2018-01-28T14:06:29Z</time>
      </trkpt>
      <trkpt lat="47.51096" lon="6.95053">
        <ele>410.91</ele>
        <time>2018-01-28T14:06:43Z</time>
      </trkpt>
      <trkpt lat="47.51078" lon="6.95059">
        <ele>409.88</ele>
        <time>2018-01-28T14:06:55Z</time>
      </trkpt>
      <trkpt lat="47.51058" lon="6.9506">
        <ele>406.12</ele>
        <time>2018-01-28T14:07:07Z</time>
      </trkpt>
      <trkpt lat="47.51039" lon="6.95067">
        <ele>407.09</ele>
        <time>2018-01-28T14:07:19Z</time>
      </trkpt>
      <trkpt lat="47.51019" lon="6.95069">
        <ele>408.4</ele>
        <time>2018-01-28T14:07:33Z</time>
      </trkpt>
      <trkpt lat="47.50999" lon="6.95079">
        <ele>407.8</ele>
        <time>2018-01-28T14:07:49Z</time>
      </trkpt>
      <trkpt lat="47.50981" lon="6.95081">
        <ele>405.82</ele>
        <time>2018-01-28T14:07:59Z</time>
      </trkpt>
      <trkpt lat="47.50961" lon="6.95087">
        <ele>405.79</ele>
        <time>2018-01-28T14:08:13Z</time>
      </trkpt>
      <trkpt lat="47.50944" lon="6.95096">
        <ele>404.99</ele>
        <time>2018-01-28T14:08:23Z</time>
      </trkpt>
      <trkpt lat="47.50926" lon="6.95101">
        <ele>402.88</ele>
        <time>2018-01-28T14:08:35Z</time>
      </trkpt>
      <trkpt lat="47.50908" lon="6.95102">
        <ele>405.94</ele>
        <time>2018-01-28T14:08:45Z</time>
      </trkpt>
      <trkpt lat="47.5089" lon="6.95108">
        <ele>407.99</ele>
        <time>2018-01-28T14:08:57Z</time>
      </trkpt>
      <trkpt lat="47.5087" lon="6.95113">
        <ele>404.84</ele>
        <time>2018-01-28T14:09:11Z</time>
      </trkpt>
      <trkpt lat="47.50851" lon="6.95119">
        <ele>403.1</ele>
        <time>2018-01-28T14:09:25Z</time>
      </trkpt>
      <trkpt lat="47.50831" lon="6.95121">
        <ele>399.52</ele>
        <time>2018-01-28T14:09:39Z</time>
      </trkpt>
      <trkpt lat="47.50811" lon="6.95109">
        <ele>391.16</ele>
        <time>2018-01-28T14:09:53Z</time>
      </trkpt>
      <trkpt lat="47.50793" lon="6.95103">
        <ele>388.42</ele>
        <time>2018-01-28T14:10:05Z</time>
      </trkpt>
      <trkpt lat="47.50773" lon="6.95096">
        <ele>385.79</ele>
        <time>2018-01-28T14:10:17Z</time>
      </trkpt>
      <trkpt lat="47.50755" lon="6.95092">
        <ele>382.21</ele>
        <time>2018-01-28T14:10:27Z</time>
      </trkpt>
      <trkpt lat="47.50735" lon="6.95081">
        <ele>380.07</ele>
        <time>2018-01-28T14:10:41Z</time>
      </trkpt>
      <trkpt lat="47.50716" lon="6.95072">
        <ele>377.82</ele>
        <time>2018-01-28T14:10:54Z</time>
      </trkpt>
      <trkpt lat="47.50699" lon="6.95063">
        <ele>376.79</ele>
        <time>2018-01-28T14:11:08Z</time>
      </trkpt>
      <trkpt lat="47.5068" lon="6.95049">
        <ele>376.79</ele>
        <time>2018-01-28T14:11:22Z</time>
      </trkpt>
      <trkpt lat="47.50663" lon="6.95028">
        <ele>374.8</ele>
        <time>2018-01-28T14:11:36Z</time>
      </trkpt>
      <trkpt lat="47.50648" lon="6.95012">
        <ele>369.92</ele>
        <time>2018-01-28T14:11:46Z</time>
      </trkpt>
      <trkpt lat="47.50635" lon="6.94991">
        <ele>369.79</ele>
        <time>2018-01-28T14:12:00Z</time>
      </trkpt>
      <trkpt lat="47.50621" lon="6.9497">
        <ele>367.89</ele>
        <time>2018-01-28T14:12:14Z</time>
      </trkpt>
      <trkpt lat="47.50605" lon="6.94954">
        <ele>366.88</ele>
        <time>2018-01-28T14:12:28Z</time>
      </trkpt>
      <trkpt lat="47.50587" lon="6.94939">
        <ele>365.09</ele>
        <time>2018-01-28T14:12:46Z</time>
      </trkpt>
      <trkpt lat="47.50571" lon="6.94921">
        <ele>364.79</ele>
        <time>2018-01-28T14:13:00Z</time>
      </trkpt>
      <trkpt lat="47.50553" lon="6.94906">
        <ele>367.46</ele>
        <time>2018-01-28T14:13:16Z</time>
      </trkpt>
      <trkpt lat="47.50535" lon="6.94898">
        <ele>367.79</ele>
        <time>2018-01-28T14:13:30Z</time>
      </trkpt>
      <trkpt lat="47.50516" lon="6.94893">
        <ele>368.76</ele>
        <time>2018-01-28T14:13:42Z</time>
      </trkpt>
      <trkpt lat="47.50498" lon="6.94893">
        <ele>368.49</ele>
        <time>2018-01-28T14:13:56Z</time>
      </trkpt>
      <trkpt lat="47.50485" lon="6.94915">
        <ele>368.88</ele>
        <time>2018-01-28T14:14:08Z</time>
      </trkpt>
      <trkpt lat="47.50484" lon="6.94942">
        <ele>367.1</ele>
        <time>2018-01-28T14:14:20Z</time>
      </trkpt>
      <trkpt lat="47.50484" lon="6.94973">
        <ele>366.77</ele>
        <time>2018-01-28T14:14:34Z</time>
      </trkpt>
      <trkpt lat="47.50478" lon="6.94999">
        <ele>363.91</ele>
        <time>2018-01-28T14:14:46Z</time>
      </trkpt>
      <trkpt lat="47.50475" lon="6.95029">
        <ele>369.78</ele>
        <time>2018-01-28T14:15:04Z</time>
      </trkpt>
      <trkpt lat="47.50477" lon="6.95058">
        <ele>368.82</ele>
        <time>2018-01-28T14:15:18Z</time>
      </trkpt>
      <trkpt lat="47.50473" lon="6.95084">
        <ele>368.46</ele>
        <time>2018-01-28T14:15:40Z</time>
      </trkpt>
      <trkpt lat="47.50455" lon="6.95088">
        <ele>362.12</ele>
        <time>2018-01-28T14:15:54Z</time>
      </trkpt>
      <trkpt lat="47.50437" lon="6.95077">
        <ele>358.73</ele>
        <time>2018-01-28T14:16:16Z</time>
      </trkpt>
      <trkpt lat="47.50416" lon="6.95077">
        <ele>357.82</ele>
        <time>2018-01-28T14:16:28Z</time>
      </trkpt>
      <trkpt lat="47.50397" lon="6.95071">
        <ele>354.42</ele>
        <time>2018-01-28T14:16:42Z</time>
      </trkpt>
      <trkpt lat="47.50377" lon="6.95078">
        <ele>354.7</ele>
        <time>2018-01-28T14:16:54Z</time>
      </trkpt>
      <trkpt lat="47.50371" lon="6.95104">
        <ele>361.36</ele>
        <time>2018-01-28T14:17:08Z</time>
      </trkpt>
      <trkpt lat="47.5037" lon="6.95131">
        <ele>361.79</ele>
        <time>2018-01-28T14:17:18Z</time>
      </trkpt>
      <trkpt lat="47.50381" lon="6.95153">
        <ele>360.85</ele>
        <time>2018-01-28T14:17:32Z</time>
      </trkpt>
      <trkpt lat="47.50396" lon="6.95173">
        <ele>358.79</ele>
        <time>2018-01-28T14:17:56Z</time>
      </trkpt>
      <trkpt lat="47.50412" lon="6.95193">
        <ele>362.46</ele>
        <time>2018-01-28T14:18:12Z</time>
      </trkpt>
      <trkpt lat="47.50425" lon="6.95213">
        <ele>364.46</ele>
        <time>2018-01-28T14:18:26Z</time>
      </trkpt>
      <trkpt lat="47.50439" lon="6.9523">
        <ele>368.76</ele>
        <time>2018-01-28T14:18:40Z</time>
      </trkpt>
      <trkpt lat="47.50453" lon="6.95249">
        <ele>368</ele>
        <time>2018-01-28T14:18:52Z</time>
      </trkpt>
      <trkpt lat="47.50455" lon="6.95276">
        <ele>368.49</ele>
        <time>2018-01-28T14:19:08Z</time>
      </trkpt>
      <trkpt lat="47.5045" lon="6.95302">
        <ele>366.91</ele>
        <time>2018-01-28T14:19:20Z</time>
      </trkpt>
      <trkpt lat="47.50442" lon="6.9533">
        <ele>367.76</ele>
        <time>2018-01-28T14:19:36Z</time>
      </trkpt>
      <trkpt lat="47.5043" lon="6.9535">
        <ele>366.82</ele>
        <time>2018-01-28T14:19:48Z</time>
      </trkpt>
      <trkpt lat="47.50413" lon="6.95369">
        <ele>365.79</ele>
        <time>2018-01-28T14:20:02Z</time>
      </trkpt>
      <trkpt lat="47.50399" lon="6.95387">
        <ele>364.12</ele>
        <time>2018-01-28T14:20:14Z</time>
      </trkpt>
      <trkpt lat="47.50383" lon="6.95406">
        <ele>362.79</ele>
        <time>2018-01-28T14:20:26Z</time>
      </trkpt>
      <trkpt lat="47.50367" lon="6.95422">
        <ele>362.79</ele>
        <time>2018-01-28T14:20:38Z</time>
      </trkpt>
      <trkpt lat="47.5035" lon="6.95439">
        <ele>361.82</ele>
        <time>2018-01-28T14:20:52Z</time>
      </trkpt>
      <trkpt lat="47.50335" lon="6.95455">
        <ele>363.79</ele>
        <time>2018-01-28T14:21:06Z</time>
      </trkpt>
      <trkpt lat="47.50319" lon="6.95472">
        <ele>363.88</ele>
        <time>2018-01-28T14:21:20Z</time>
      </trkpt>
      <trkpt lat="47.50312" lon="6.95497">
        <ele>365.49</ele>
        <time>2018-01-28T14:21:36Z</time>
      </trkpt>
      <trkpt lat="47.50314" lon="6.95525">
        <ele>372.39</ele>
        <time>2018-01-28T14:21:56Z</time>
      </trkpt>
      <trkpt lat="47.50323" lon="6.9555">
        <ele>379.27</ele>
        <time>2018-01-28T14:22:12Z</time>
      </trkpt>
      <trkpt lat="47.50313" lon="6.95572">
        <ele>386.07</ele>
        <time>2018-01-28T14:22:38Z</time>
      </trkpt>
      <trkpt lat="47.50293" lon="6.95569">
        <ele>388.45</ele>
        <time>2018-01-28T14:22:58Z</time>
      </trkpt>
      <trkpt lat="47.50273" lon="6.9557">
        <ele>391.4</ele>
        <time>2018-01-28T14:23:12Z</time>
      </trkpt>
      <trkpt lat="47.50252" lon="6.95568">
        <ele>393.38</ele>
        <time>2018-01-28T14:23:28Z</time>
      </trkpt>
      <trkpt lat="47.50232" lon="6.95569">
        <ele>397.45</ele>
        <time>2018-01-28T14:23:42Z</time>
      </trkpt>
      <trkpt lat="47.50212" lon="6.9557">
        <ele>401.97</ele>
        <time>2018-01-28T14:23:58Z</time>
      </trkpt>
      <trkpt lat="47.50194" lon="6.95574">
        <ele>400.09</ele>
        <time>2018-01-28T14:24:14Z</time>
      </trkpt>
      <trkpt lat="47.50176" lon="6.95584">
        <ele>400.76</ele>
        <time>2018-01-28T14:24:26Z</time>
      </trkpt>
      <trkpt lat="47.50156" lon="6.95596">
        <ele>404.79</ele>
        <time>2018-01-28T14:24:42Z</time>
      </trkpt>
      <trkpt lat="47.50137" lon="6.95606">
        <ele>402.82</ele>
        <time>2018-01-28T14:24:54Z</time>
      </trkpt>
      <trkpt lat="47.50119" lon="6.95614">
        <ele>402.73</ele>
        <time>2018-01-28T14:25:06Z</time>
      </trkpt>
      <trkpt lat="47.50101" lon="6.95623">
        <ele>400.07</ele>
        <time>2018-01-28T14:25:24Z</time>
      </trkpt>
      <trkpt lat="47.50085" lon="6.95637">
        <ele>400.31</ele>
        <time>2018-01-28T14:25:37Z</time>
      </trkpt>
      <trkpt lat="47.5007" lon="6.95658">
        <ele>407.39</ele>
        <time>2018-01-28T14:26:01Z</time>
      </trkpt>
      <trkpt lat="47.50054" lon="6.95672">
        <ele>410.69</ele>
        <time>2018-01-28T14:26:17Z</time>
      </trkpt>
      <trkpt lat="47.50037" lon="6.95684">
        <ele>413.67</ele>
        <time>2018-01-28T14:26:31Z</time>
      </trkpt>
      <trkpt lat="47.50017" lon="6.95693">
        <ele>410.49</ele>
        <time>2018-01-28T14:26:59Z</time>
      </trkpt>
      <trkpt lat="47.49999" lon="6.95703">
        <ele>415.66</ele>
        <time>2018-01-28T14:27:27Z</time>
      </trkpt>
      <trkpt lat="47.4998" lon="6.95703">
        <ele>420.7</ele>
        <time>2018-01-28T14:27:47Z</time>
      </trkpt>
      <trkpt lat="47.49962" lon="6.95709">
        <ele>423.39</ele>
        <time>2018-01-28T14:27:59Z</time>
      </trkpt>
      <trkpt lat="47.49944" lon="6.9572">
        <ele>428.51</ele>
        <time>2018-01-28T14:28:39Z</time>
      </trkpt>
      <trkpt lat="47.49925" lon="6.95734">
        <ele>431.48</ele>
        <time>2018-01-28T14:28:59Z</time>
      </trkpt>
      <trkpt lat="47.49905" lon="6.95734">
        <ele>430.39</ele>
        <time>2018-01-28T14:29:17Z</time>
      </trkpt>
      <trkpt lat="47.49885" lon="6.9574">
        <ele>430.75</ele>
        <time>2018-01-28T14:29:35Z</time>
      </trkpt>
      <trkpt lat="47.49866" lon="6.95748">
        <ele>434.16</ele>
        <time>2018-01-28T14:29:47Z</time>
      </trkpt>
      <trkpt lat="47.49847" lon="6.95748">
        <ele>435.16</ele>
        <time>2018-01-28T14:30:02Z</time>
      </trkpt>
      <trkpt lat="47.49829" lon="6.95756">
        <ele>432.48</ele>
        <time>2018-01-28T14:30:34Z</time>
      </trkpt>
      <trkpt lat="47.49811" lon="6.95759">
        <ele>435.09</ele>
        <time>2018-01-28T14:30:54Z</time>
      </trkpt>
      <trkpt lat="47.49791" lon="6.95761">
        <ele>437.79</ele>
        <time>2018-01-28T14:31:14Z</time>
      </trkpt>
      <trkpt lat="47.49772" lon="6.95752">
        <ele>429.25</ele>
        <time>2018-01-28T14:31:30Z</time>
      </trkpt>
      <trkpt lat="47.49754" lon="6.95744">
        <ele>430.49</ele>
        <time>2018-01-28T14:32:28Z</time>
      </trkpt>
      <trkpt lat="47.49738" lon="6.95732">
        <ele>431.7</ele>
        <time>2018-01-28T14:32:38Z</time>
      </trkpt>
      <trkpt lat="47.4972" lon="6.95722">
        <ele>432.7</ele>
        <time>2018-01-28T14:32:52Z</time>
      </trkpt>
      <trkpt lat="47.49702" lon="6.95721">
        <ele>435.76</ele>
        <time>2018-01-28T14:33:10Z</time>
      </trkpt>
      <trkpt lat="47.49682" lon="6.95717">
        <ele>437.76</ele>
        <time>2018-01-28T14:33:30Z</time>
      </trkpt>
      <trkpt lat="47.49664" lon="6.95713">
        <ele>441.67</ele>
        <time>2018-01-28T14:33:44Z</time>
      </trkpt>
      <trkpt lat="47.49646" lon="6.95713">
        <ele>442.52</ele>
        <time>2018-01-28T14:34:00Z</time>
      </trkpt>
      <trkpt lat="47.49626" lon="6.9572">
        <ele>446.4</ele>
        <time>2018-01-28T14:34:22Z</time>
      </trkpt>
      <trkpt lat="47.49607" lon="6.95728">
        <ele>448.78</ele>
        <time>2018-01-28T14:34:34Z</time>
      </trkpt>
      <trkpt lat="47.49587" lon="6.95735">
        <ele>448.79</ele>
        <time>2018-01-28T14:34:46Z</time>
      </trkpt>
      <trkpt lat="47.49567" lon="6.95741">
        <ele>451.78</ele>
        <time>2018-01-28T14:35:02Z</time>
      </trkpt>
      <trkpt lat="47.49547" lon="6.95744">
        <ele>456.47</ele>
        <time>2018-01-28T14:35:16Z</time>
      </trkpt>
      <trkpt lat="47.49529" lon="6.95745">
        <ele>462.35</ele>
        <time>2018-01-28T14:35:24Z</time>
      </trkpt>
      <trkpt lat="47.4951" lon="6.9574">
        <ele>460.88</ele>
        <time>2018-01-28T14:35:36Z</time>
      </trkpt>
      <trkpt lat="47.49489" lon="6.95736">
        <ele>461.42</ele>
        <time>2018-01-28T14:35:46Z</time>
      </trkpt>
      <trkpt lat="47.49471" lon="6.95732">
        <ele>463.75</ele>
        <time>2018-01-28T14:36:02Z</time>
      </trkpt>
      <trkpt lat="47.4945" lon="6.95732">
        <ele>463.09</ele>
        <time>2018-01-28T14:36:14Z</time>
      </trkpt>
      <trkpt lat="47.49433" lon="6.95718">
        <ele>461.79</ele>
        <time>2018-01-28T14:36:28Z</time>
      </trkpt>
      <trkpt lat="47.49419" lon="6.95701">
        <ele>462.55</ele>
        <time>2018-01-28T14:36:40Z</time>
      </trkpt>
      <trkpt lat="47.49403" lon="6.95686">
        <ele>460.88</ele>
        <time>2018-01-28T14:36:52Z</time>
      </trkpt>
      <trkpt lat="47.49384" lon="6.95678">
        <ele>462.82</ele>
        <time>2018-01-28T14:37:06Z</time>
      </trkpt>
      <trkpt lat="47.49365" lon="6.95675">
        <ele>457.7</ele>
        <time>2018-01-28T14:37:26Z</time>
      </trkpt>
      <trkpt lat="47.49346" lon="6.95675">
        <ele>453.97</ele>
        <time>2018-01-28T14:38:30Z</time>
      </trkpt>
      <trkpt lat="47.49331" lon="6.95693">
        <ele>454.09</ele>
        <time>2018-01-28T14:39:20Z</time>
      </trkpt>
      <trkpt lat="47.49321" lon="6.95716">
        <ele>454.49</ele>
        <time>2018-01-28T14:39:53Z</time>
      </trkpt>
      <trkpt lat="47.49303" lon="6.95706">
        <ele>461.78</ele>
        <time>2018-01-28T14:40:17Z</time>
      </trkpt>
      <trkpt lat="47.49293" lon="6.95682">
        <ele>458.44</ele>
        <time>2018-01-28T14:40:35Z</time>
      </trkpt>
      <trkpt lat="47.49282" lon="6.95658">
        <ele>463.39</ele>
        <time>2018-01-28T14:40:58Z</time>
      </trkpt>
      <trkpt lat="47.49263" lon="6.95652">
        <ele>464.8</ele>
        <time>2018-01-28T14:41:18Z</time>
      </trkpt>
      <trkpt lat="47.49244" lon="6.95653">
        <ele>468.09</ele>
        <time>2018-01-28T14:41:32Z</time>
      </trkpt>
      <trkpt lat="47.49225" lon="6.95648">
        <ele>468.49</ele>
        <time>2018-01-28T14:41:46Z</time>
      </trkpt>
      <trkpt lat="47.49207" lon="6.95643">
        <ele>468.79</ele>
        <time>2018-01-28T14:42:02Z</time>
      </trkpt>
      <trkpt lat="47.49189" lon="6.95637">
        <ele>467.91</ele>
        <time>2018-01-28T14:42:18Z</time>
      </trkpt>
      <trkpt lat="47.49172" lon="6.95644">
        <ele>467.5</ele>
        <time>2018-01-28T14:42:32Z</time>
      </trkpt>
      <trkpt lat="47.49153" lon="6.95635">
        <ele>470.62</ele>
        <time>2018-01-28T14:42:52Z</time>
      </trkpt>
      <trkpt lat="47.49135" lon="6.95631">
        <ele>470.76</ele>
        <time>2018-01-28T14:43:06Z</time>
      </trkpt>
      <trkpt lat="47.49115" lon="6.95624">
        <ele>474.58</ele>
        <time>2018-01-28T14:43:22Z</time>
      </trkpt>
      <trkpt lat="47.49097" lon="6.95625">
        <ele>473.73</ele>
        <time>2018-01-28T14:43:40Z</time>
      </trkpt>
      <trkpt lat="47.49078" lon="6.95626">
        <ele>474.15</ele>
        <time>2018-01-28T14:43:54Z</time>
      </trkpt>
      <trkpt lat="47.49057" lon="6.95625">
        <ele>470.87</ele>
        <time>2018-01-28T14:44:10Z</time>
      </trkpt>
      <trkpt lat="47.49044" lon="6.95607">
        <ele>466.05</ele>
        <time>2018-01-28T14:44:27Z</time>
      </trkpt>
      <trkpt lat="47.49037" lon="6.9558">
        <ele>464.81</ele>
        <time>2018-01-28T14:44:43Z</time>
      </trkpt>
      <trkpt lat="47.49034" lon="6.95552">
        <ele>465.11</ele>
        <time>2018-01-28T14:44:59Z</time>
      </trkpt>
      <trkpt lat="47.4903" lon="6.95524">
        <ele>459.89</ele>
        <time>2018-01-28T14:45:15Z</time>
      </trkpt>
      <trkpt lat="47.49029" lon="6.95495">
        <ele>453.28</ele>
        <time>2018-01-28T14:45:29Z</time>
      </trkpt>
      <trkpt lat="47.49028" lon="6.95466">
        <ele>449.24</ele>
        <time>2018-01-28T14:45:43Z</time>
      </trkpt>
      <trkpt lat="47.49026" lon="6.95436">
        <ele>446.88</ele>
        <time>2018-01-28T14:45:57Z</time>
      </trkpt>
      <trkpt lat="47.49016" lon="6.95413">
        <ele>444.76</ele>
        <time>2018-01-28T14:46:15Z</time>
      </trkpt>
      <trkpt lat="47.48998" lon="6.95406">
        <ele>442.91</ele>
        <time>2018-01-28T14:46:33Z</time>
      </trkpt>
      <trkpt lat="47.48977" lon="6.954">
        <ele>443.49</ele>
        <time>2018-01-28T14:46:55Z</time>
      </trkpt>
      <trkpt lat="47.48957" lon="6.95397">
        <ele>447.98</ele>
        <time>2018-01-28T14:47:13Z</time>
      </trkpt>
      <trkpt lat="47.48939" lon="6.95393">
        <ele>444.69</ele>
        <time>2018-01-28T14:47:51Z</time>
      </trkpt>
      <trkpt lat="47.48922" lon="6.95381">
        <ele>432.09</ele>
        <time>2018-01-28T14:51:05Z</time>
      </trkpt>
      <trkpt lat="47.48903" lon="6.95375">
        <ele>440.64</ele>
        <time>2018-01-28T14:53:38Z</time>
      </trkpt>
      <trkpt lat="47.48886" lon="6.95365">
        <ele>445.17</ele>
        <time>2018-01-28T14:54:00Z</time>
      </trkpt>
      <trkpt lat="47.48866" lon="6.95362">
        <ele>451.45</ele>
        <time>2018-01-28T14:54:14Z</time>
      </trkpt>
      <trkpt lat="47.48848" lon="6.95349">
        <ele>451.51</ele>
        <time>2018-01-28T14:54:36Z</time>
      </trkpt>
      <trkpt lat="47.48829" lon="6.95342">
        <ele>459.37</ele>
        <time>2018-01-28T14:54:50Z</time>
      </trkpt>
      <trkpt lat="47.48811" lon="6.95339">
        <ele>456.81</ele>
        <time>2018-01-28T14:55:06Z</time>
      </trkpt>
      <trkpt lat="47.48791" lon="6.95336">
        <ele>455.76</ele>
        <time>2018-01-28T14:55:20Z</time>
      </trkpt>
      <trkpt lat="47.48771" lon="6.95328">
        <ele>458.64</ele>
        <time>2018-01-28T14:55:36Z</time>
      </trkpt>
      <trkpt lat="47.48752" lon="6.95327">
        <ele>457.18</ele>
        <time>2018-01-28T14:55:52Z</time>
      </trkpt>
      <trkpt lat="47.48733" lon="6.95333">
        <ele>460.42</ele>
        <time>2018-01-28T14:56:06Z</time>
      </trkpt>
      <trkpt lat="47.48716" lon="6.95318">
        <ele>459.79</ele>
        <time>2018-01-28T14:56:20Z</time>
      </trkpt>
      <trkpt lat="47.48705" lon="6.95297">
        <ele>458.72</ele>
        <time>2018-01-28T14:56:34Z</time>
      </trkpt>
      <trkpt lat="47.48683" lon="6.95291">
        <ele>460.79</ele>
        <time>2018-01-28T14:56:52Z</time>
      </trkpt>
      <trkpt lat="47.48663" lon="6.95285">
        <ele>462.49</ele>
        <time>2018-01-28T14:57:06Z</time>
      </trkpt>
      <trkpt lat="47.48645" lon="6.95279">
        <ele>466.23</ele>
        <time>2018-01-28T14:57:20Z</time>
      </trkpt>
      <trkpt lat="47.48627" lon="6.95275">
        <ele>468.39</ele>
        <time>2018-01-28T14:57:34Z</time>
      </trkpt>
      <trkpt lat="47.48608" lon="6.95275">
        <ele>467.18</ele>
        <time>2018-01-28T14:57:46Z</time>
      </trkpt>
      <trkpt lat="47.48589" lon="6.9527">
        <ele>465.21</ele>
        <time>2018-01-28T14:58:00Z</time>
      </trkpt>
      <trkpt lat="47.48569" lon="6.95261">
        <ele>465.79</ele>
        <time>2018-01-28T14:58:16Z</time>
      </trkpt>
      <trkpt lat="47.48549" lon="6.95255">
        <ele>467.7</ele>
        <time>2018-01-28T14:58:32Z</time>
      </trkpt>
      <trkpt lat="47.4853" lon="6.95251">
        <ele>469.49</ele>
        <time>2018-01-28T14:58:46Z</time>
      </trkpt>
      <trkpt lat="47.48512" lon="6.95254">
        <ele>467.4</ele>
        <time>2018-01-28T14:59:08Z</time>
      </trkpt>
      <trkpt lat="47.48499" lon="6.95274">
        <ele>471.48</ele>
        <time>2018-01-28T14:59:26Z</time>
      </trkpt>
      <trkpt lat="47.48494" lon="6.95301">
        <ele>477.3</ele>
        <time>2018-01-28T14:59:56Z</time>
      </trkpt>
      <trkpt lat="47.48485" lon="6.95325">
        <ele>481.85</ele>
        <time>2018-01-28T15:00:14Z</time>
      </trkpt>
      <trkpt lat="47.48479" lon="6.95352">
        <ele>485.49</ele>
        <time>2018-01-28T15:00:38Z</time>
      </trkpt>
      <trkpt lat="47.48466" lon="6.95374">
        <ele>487.75</ele>
        <time>2018-01-28T15:01:00Z</time>
      </trkpt>
      <trkpt lat="47.48457" lon="6.95399">
        <ele>489.78</ele>
        <time>2018-01-28T15:01:24Z</time>
      </trkpt>
      <trkpt lat="47.48446" lon="6.95422">
        <ele>491.79</ele>
        <time>2018-01-28T15:01:44Z</time>
      </trkpt>
      <trkpt lat="47.48438" lon="6.95447">
        <ele>497.46</ele>
        <time>2018-01-28T15:02:04Z</time>
      </trkpt>
      <trkpt lat="47.48426" lon="6.95467">
        <ele>502.64</ele>
        <time>2018-01-28T15:02:18Z</time>
      </trkpt>
      <trkpt lat="47.48418" lon="6.95493">
        <ele>507.87</ele>
        <time>2018-01-28T15:02:40Z</time>
      </trkpt>
      <trkpt lat="47.48408" lon="6.95518">
        <ele>509.98</ele>
        <time>2018-01-28T15:03:00Z</time>
      </trkpt>
      <trkpt lat="47.484" lon="6.95546">
        <ele>511.8</ele>
        <time>2018-01-28T15:03:21Z</time>
      </trkpt>
      <trkpt lat="47.48391" lon="6.9557">
        <ele>513.97</ele>
        <time>2018-01-28T15:03:35Z</time>
      </trkpt>
      <trkpt lat="47.48383" lon="6.95596">
        <ele>514.79</ele>
        <time>2018-01-28T15:03:47Z</time>
      </trkpt>
      <trkpt lat="47.48366" lon="6.95612">
        <ele>515.48</ele>
        <time>2018-01-28T15:04:03Z</time>
      </trkpt>
      <trkpt lat="47.48352" lon="6.95628">
        <ele>514.5</ele>
        <time>2018-01-28T15:04:19Z</time>
      </trkpt>
      <trkpt lat="47.48339" lon="6.95649">
        <ele>513</ele>
        <time>2018-01-28T15:04:39Z</time>
      </trkpt>
      <trkpt lat="47.48328" lon="6.95673">
        <ele>519.36</ele>
        <time>2018-01-28T15:04:55Z</time>
      </trkpt>
      <trkpt lat="47.48312" lon="6.95692">
        <ele>521.2</ele>
        <time>2018-01-28T15:05:11Z</time>
      </trkpt>
      <trkpt lat="47.48297" lon="6.95708">
        <ele>519.49</ele>
        <time>2018-01-28T15:05:31Z</time>
      </trkpt>
      <trkpt lat="47.48278" lon="6.9572">
        <ele>524.51</ele>
        <time>2018-01-28T15:05:53Z</time>
      </trkpt>
      <trkpt lat="47.48263" lon="6.9574">
        <ele>521.01</ele>
        <time>2018-01-28T15:06:09Z</time>
      </trkpt>
      <trkpt lat="47.48254" lon="6.95764">
        <ele>519.81</ele>
        <time>2018-01-28T15:06:25Z</time>
      </trkpt>
      <trkpt lat="47.48262" lon="6.95791">
        <ele>525.78</ele>
        <time>2018-01-28T15:06:51Z</time>
      </trkpt>
      <trkpt lat="47.48279" lon="6.958">
        <ele>525.73</ele>
        <time>2018-01-28T15:07:03Z</time>
      </trkpt>
      <trkpt lat="47.48297" lon="6.95815">
        <ele>524.8</ele>
        <time>2018-01-28T15:07:19Z</time>
      </trkpt>
      <trkpt lat="47.48314" lon="6.95821">
        <ele>524.1</ele>
        <time>2018-01-28T15:07:31Z</time>
      </trkpt>
      <trkpt lat="47.48334" lon="6.95828">
        <ele>525.09</ele>
        <time>2018-01-28T15:07:45Z</time>
      </trkpt>
      <trkpt lat="47.48355" lon="6.95837">
        <ele>525.76</ele>
        <time>2018-01-28T15:07:59Z</time>
      </trkpt>
      <trkpt lat="47.48373" lon="6.95845">
        <ele>524.82</ele>
        <time>2018-01-28T15:08:11Z</time>
      </trkpt>
      <trkpt lat="47.48393" lon="6.95849">
        <ele>520.3</ele>
        <time>2018-01-28T15:08:23Z</time>
      </trkpt>
      <trkpt lat="47.4841" lon="6.9586">
        <ele>515.89</ele>
        <time>2018-01-28T15:08:35Z</time>
      </trkpt>
      <trkpt lat="47.48427" lon="6.95869">
        <ele>517.46</ele>
        <time>2018-01-28T15:08:45Z</time>
      </trkpt>
      <trkpt lat="47.48446" lon="6.9588">
        <ele>515.18</ele>
        <time>2018-01-28T15:08:57Z</time>
      </trkpt>
      <trkpt lat="47.48465" lon="6.95891">
        <ele>510.1</ele>
        <time>2018-01-28T15:09:11Z</time>
      </trkpt>
      <trkpt lat="47.48484" lon="6.95899">
        <ele>506.89</ele>
        <time>2018-01-28T15:09:25Z</time>
      </trkpt>
      <trkpt lat="47.48504" lon="6.95906">
        <ele>504.82</ele>
        <time>2018-01-28T15:09:39Z</time>
      </trkpt>
      <trkpt lat="47.48523" lon="6.95918">
        <ele>501.89</ele>
        <time>2018-01-28T15:09:53Z</time>
      </trkpt>
      <trkpt lat="47.48541" lon="6.95923">
        <ele>500.85</ele>
        <time>2018-01-28T15:10:05Z</time>
      </trkpt>
      <trkpt lat="47.48559" lon="6.95928">
        <ele>498.79</ele>
        <time>2018-01-28T15:10:17Z</time>
      </trkpt>
      <trkpt lat="47.48577" lon="6.9593">
        <ele>495.12</ele>
        <time>2018-01-28T15:10:29Z</time>
      </trkpt>
      <trkpt lat="47.48596" lon="6.95932">
        <ele>493.82</ele>
        <time>2018-01-28T15:10:43Z</time>
      </trkpt>
      <trkpt lat="47.48613" lon="6.95943">
        <ele>492.81</ele>
        <time>2018-01-28T15:10:59Z</time>
      </trkpt>
      <trkpt lat="47.48606" lon="6.95971">
        <ele>495.69</ele>
        <time>2018-01-28T15:11:20Z</time>
      </trkpt>
      <trkpt lat="47.48601" lon="6.95997">
        <ele>498.4</ele>
        <time>2018-01-28T15:11:36Z</time>
      </trkpt>
      <trkpt lat="47.48596" lon="6.96025">
        <ele>500.71</ele>
        <time>2018-01-28T15:11:56Z</time>
      </trkpt>
      <trkpt lat="47.48591" lon="6.96053">
        <ele>503.51</ele>
        <time>2018-01-28T15:12:12Z</time>
      </trkpt>
      <trkpt lat="47.48586" lon="6.96079">
        <ele>504.69</ele>
        <time>2018-01-28T15:12:26Z</time>
      </trkpt>
      <trkpt lat="47.48577" lon="6.96104">
        <ele>502.18</ele>
        <time>2018-01-28T15:12:38Z</time>
      </trkpt>
      <trkpt lat="47.4857" lon="6.96131">
        <ele>501.5</ele>
        <time>2018-01-28T15:12:50Z</time>
      </trkpt>
      <trkpt lat="47.48565" lon="6.96163">
        <ele>500.79</ele>
        <time>2018-01-28T15:13:08Z</time>
      </trkpt>
      <trkpt lat="47.48562" lon="6.96194">
        <ele>498.18</ele>
        <time>2018-01-28T15:13:22Z</time>
      </trkpt>
      <trkpt lat="47.48561" lon="6.96225">
        <ele>495.1</ele>
        <time>2018-01-28T15:13:36Z</time>
      </trkpt>
      <trkpt lat="47.48559" lon="6.96252">
        <ele>493.11</ele>
        <time>2018-01-28T15:13:48Z</time>
      </trkpt>
      <trkpt lat="47.48557" lon="6.9628">
        <ele>491.09</ele>
        <time>2018-01-28T15:14:00Z</time>
      </trkpt>
      <trkpt lat="47.48554" lon="6.96311">
        <ele>488.8</ele>
        <time>2018-01-28T15:14:14Z</time>
      </trkpt>
      <trkpt lat="47.48552" lon="6.96338">
        <ele>486.84</ele>
        <time>2018-01-28T15:14:24Z</time>
      </trkpt>
      <trkpt lat="47.48547" lon="6.96365">
        <ele>486.81</ele>
        <time>2018-01-28T15:14:36Z</time>
      </trkpt>
      <trkpt lat="47.48541" lon="6.96394">
        <ele>485.82</ele>
        <time>2018-01-28T15:14:48Z</time>
      </trkpt>
      <trkpt lat="47.48529" lon="6.96418">
        <ele>484.9</ele>
        <time>2018-01-28T15:15:02Z</time>
      </trkpt>
      <trkpt lat="47.48516" lon="6.96437">
        <ele>485.08</ele>
        <time>2018-01-28T15:15:12Z</time>
      </trkpt>
      <trkpt lat="47.48504" lon="6.96461">
        <ele>481.13</ele>
        <time>2018-01-28T15:15:30Z</time>
      </trkpt>
      <trkpt lat="47.48501" lon="6.96491">
        <ele>478.82</ele>
        <time>2018-01-28T15:15:46Z</time>
      </trkpt>
      <trkpt lat="47.48505" lon="6.9652">
        <ele>476.87</ele>
        <time>2018-01-28T15:16:00Z</time>
      </trkpt>
      <trkpt lat="47.48506" lon="6.96547">
        <ele>474.88</ele>
        <time>2018-01-28T15:16:14Z</time>
      </trkpt>
      <trkpt lat="47.48509" lon="6.96574">
        <ele>471.64</ele>
        <time>2018-01-28T15:16:26Z</time>
      </trkpt>
      <trkpt lat="47.48507" lon="6.96604">
        <ele>469.8</ele>
        <time>2018-01-28T15:16:38Z</time>
      </trkpt>
      <trkpt lat="47.4851" lon="6.96631">
        <ele>468.18</ele>
        <time>2018-01-28T15:16:50Z</time>
      </trkpt>
      <trkpt lat="47.48516" lon="6.96658">
        <ele>469.02</ele>
        <time>2018-01-28T15:17:08Z</time>
      </trkpt>
      <trkpt lat="47.4852" lon="6.96687">
        <ele>466.88</ele>
        <time>2018-01-28T15:17:22Z</time>
      </trkpt>
      <trkpt lat="47.48523" lon="6.96714">
        <ele>463.98</ele>
        <time>2018-01-28T15:17:32Z</time>
      </trkpt>
      <trkpt lat="47.48524" lon="6.96746">
        <ele>458.73</ele>
        <time>2018-01-28T15:17:44Z</time>
      </trkpt>
      <trkpt lat="47.48526" lon="6.96775">
        <ele>452.22</ele>
        <time>2018-01-28T15:17:54Z</time>
      </trkpt>
      <trkpt lat="47.48529" lon="6.96808">
        <ele>450.73</ele>
        <time>2018-01-28T15:18:04Z</time>
      </trkpt>
      <trkpt lat="47.48523" lon="6.96834">
        <ele>448.09</ele>
        <time>2018-01-28T15:18:28Z</time>
      </trkpt>
      <trkpt lat="47.48532" lon="6.9686">
        <ele>445.89</ele>
        <time>2018-01-28T15:18:40Z</time>
      </trkpt>
      <trkpt lat="47.48547" lon="6.9688">
        <ele>445.85</ele>
        <time>2018-01-28T15:18:54Z</time>
      </trkpt>
      <trkpt lat="47.48559" lon="6.969">
        <ele>444.18</ele>
        <time>2018-01-28T15:19:04Z</time>
      </trkpt>
      <trkpt lat="47.48576" lon="6.96916">
        <ele>442.85</ele>
        <time>2018-01-28T15:19:16Z</time>
      </trkpt>
      <trkpt lat="47.48593" lon="6.96935">
        <ele>441.82</ele>
        <time>2018-01-28T15:19:30Z</time>
      </trkpt>
      <trkpt lat="47.48612" lon="6.96947">
        <ele>441.09</ele>
        <time>2018-01-28T15:19:48Z</time>
      </trkpt>
      <trkpt lat="47.48632" lon="6.96953">
        <ele>442.79</ele>
        <time>2018-01-28T15:20:00Z</time>
      </trkpt>
      <trkpt lat="47.48649" lon="6.96968">
        <ele>442.79</ele>
        <time>2018-01-28T15:20:14Z</time>
      </trkpt>
      <trkpt lat="47.48665" lon="6.96983">
        <ele>442.75</ele>
        <time>2018-01-28T15:20:27Z</time>
      </trkpt>
      <trkpt lat="47.48684" lon="6.96995">
        <ele>445.41</ele>
        <time>2018-01-28T15:20:41Z</time>
      </trkpt>
      <trkpt lat="47.48698" lon="6.97013">
        <ele>448.31</ele>
        <time>2018-01-28T15:20:57Z</time>
      </trkpt>
      <trkpt lat="47.48708" lon="6.97041">
        <ele>449.78</ele>
        <time>2018-01-28T15:21:13Z</time>
      </trkpt>
      <trkpt lat="47.4872" lon="6.97064">
        <ele>453.54</ele>
        <time>2018-01-28T15:21:25Z</time>
      </trkpt>
      <trkpt lat="47.48732" lon="6.97083">
        <ele>449.94</ele>
        <time>2018-01-28T15:21:37Z</time>
      </trkpt>
      <trkpt lat="47.48744" lon="6.97107">
        <ele>447.12</ele>
        <time>2018-01-28T15:21:51Z</time>
      </trkpt>
      <trkpt lat="47.48757" lon="6.97129">
        <ele>448.67</ele>
        <time>2018-01-28T15:22:03Z</time>
      </trkpt>
      <trkpt lat="47.48768" lon="6.9715">
        <ele>445.82</ele>
        <time>2018-01-28T15:22:15Z</time>
      </trkpt>
      <trkpt lat="47.4878" lon="6.97181">
        <ele>442.42</ele>
        <time>2018-01-28T15:22:28Z</time>
      </trkpt>
      <trkpt lat="47.48793" lon="6.97206">
        <ele>442.85</ele>
        <time>2018-01-28T15:22:40Z</time>
      </trkpt>
      <trkpt lat="47.48804" lon="6.97231">
        <ele>441.8</ele>
        <time>2018-01-28T15:22:52Z</time>
      </trkpt>
      <trkpt lat="47.48813" lon="6.9726">
        <ele>439.21</ele>
        <time>2018-01-28T15:23:02Z</time>
      </trkpt>
      <trkpt lat="47.48826" lon="6.97284">
        <ele>434.21</ele>
        <time>2018-01-28T15:23:14Z</time>
      </trkpt>
      <trkpt lat="47.48837" lon="6.9731">
        <ele>430.21</ele>
        <time>2018-01-28T15:23:26Z</time>
      </trkpt>
      <trkpt lat="47.48824" lon="6.97331">
        <ele>429.7</ele>
        <time>2018-01-28T15:23:42Z</time>
      </trkpt>
      <trkpt lat="47.48808" lon="6.9735">
        <ele>431.7</ele>
        <time>2018-01-28T15:23:56Z</time>
      </trkpt>
      <trkpt lat="47.48803" lon="6.97378">
        <ele>431.08</ele>
        <time>2018-01-28T15:24:10Z</time>
      </trkpt>
      <trkpt lat="47.488" lon="6.97407">
        <ele>431.79</ele>
        <time>2018-01-28T15:24:26Z</time>
      </trkpt>
      <trkpt lat="47.48814" lon="6.97424">
        <ele>431.78</ele>
        <time>2018-01-28T15:24:42Z</time>
      </trkpt>
      <trkpt lat="47.48831" lon="6.97437">
        <ele>430.79</ele>
        <time>2018-01-28T15:24:56Z</time>
      </trkpt>
      <trkpt lat="47.48845" lon="6.97454">
        <ele>429.82</ele>
        <time>2018-01-28T15:25:10Z</time>
      </trkpt>
      <trkpt lat="47.4886" lon="6.97472">
        <ele>429.79</ele>
        <time>2018-01-28T15:25:24Z</time>
      </trkpt>
      <trkpt lat="47.48877" lon="6.97493">
        <ele>427.88</ele>
        <time>2018-01-28T15:25:39Z</time>
      </trkpt>
      <trkpt lat="47.48893" lon="6.97508">
        <ele>424.82</ele>
        <time>2018-01-28T15:25:52Z</time>
      </trkpt>
      <trkpt lat="47.48907" lon="6.97527">
        <ele>421.3</ele>
        <time>2018-01-28T15:26:04Z</time>
      </trkpt>
      <trkpt lat="47.48905" lon="6.97556">
        <ele>419.79</ele>
        <time>2018-01-28T15:26:20Z</time>
      </trkpt>
      <trkpt lat="47.48889" lon="6.9757">
        <ele>419.76</ele>
        <time>2018-01-28T15:26:38Z</time>
      </trkpt>
      <trkpt lat="47.4887" lon="6.97567">
        <ele>421.39</ele>
        <time>2018-01-28T15:27:06Z</time>
      </trkpt>
      <trkpt lat="47.4885" lon="6.97569">
        <ele>422.06</ele>
        <time>2018-01-28T15:27:22Z</time>
      </trkpt>
      <trkpt lat="47.48831" lon="6.97574">
        <ele>423.04</ele>
        <time>2018-01-28T15:27:36Z</time>
      </trkpt>
      <trkpt lat="47.48814" lon="6.97583">
        <ele>420.8</ele>
        <time>2018-01-28T15:27:48Z</time>
      </trkpt>
      <trkpt lat="47.48797" lon="6.97598">
        <ele>419.42</ele>
        <time>2018-01-28T15:28:02Z</time>
      </trkpt>
      <trkpt lat="47.48781" lon="6.97611">
        <ele>416.82</ele>
        <time>2018-01-28T15:28:14Z</time>
      </trkpt>
      <trkpt lat="47.48764" lon="6.97625">
        <ele>414.12</ele>
        <time>2018-01-28T15:28:28Z</time>
      </trkpt>
      <trkpt lat="47.48745" lon="6.97637">
        <ele>411.79</ele>
        <time>2018-01-28T15:28:42Z</time>
      </trkpt>
      <trkpt lat="47.48729" lon="6.97654">
        <ele>407.13</ele>
        <time>2018-01-28T15:28:56Z</time>
      </trkpt>
      <trkpt lat="47.48715" lon="6.97673">
        <ele>406.09</ele>
        <time>2018-01-28T15:29:10Z</time>
      </trkpt>
      <trkpt lat="47.48703" lon="6.97696">
        <ele>406.06</ele>
        <time>2018-01-28T15:29:24Z</time>
      </trkpt>
      <trkpt lat="47.48692" lon="6.9772">
        <ele>403.88</ele>
        <time>2018-01-28T15:29:40Z</time>
      </trkpt>
      <trkpt lat="47.48683" lon="6.97746">
        <ele>402.79</ele>
        <time>2018-01-28T15:29:52Z</time>
      </trkpt>
      <trkpt lat="47.4868" lon="6.97775">
        <ele>403.49</ele>
        <time>2018-01-28T15:30:06Z</time>
      </trkpt>
      <trkpt lat="47.48694" lon="6.97797">
        <ele>405.06</ele>
        <time>2018-01-28T15:30:20Z</time>
      </trkpt>
      <trkpt lat="47.48707" lon="6.97818">
        <ele>411.94</ele>
        <time>2018-01-28T15:31:01Z</time>
      </trkpt>
      <trkpt lat="47.48725" lon="6.97833">
        <ele>414.79</ele>
        <time>2018-01-28T15:31:15Z</time>
      </trkpt>
      <trkpt lat="47.48742" lon="6.97847">
        <ele>411.82</ele>
        <time>2018-01-28T15:31:27Z</time>
      </trkpt>
      <trkpt lat="47.4876" lon="6.97859">
        <ele>410.1</ele>
        <time>2018-01-28T15:31:41Z</time>
      </trkpt>
      <trkpt lat="47.48779" lon="6.9787">
        <ele>408.8</ele>
        <time>2018-01-28T15:31:55Z</time>
      </trkpt>
      <trkpt lat="47.48795" lon="6.97884">
        <ele>412.37</ele>
        <time>2018-01-28T15:32:11Z</time>
      </trkpt>
      <trkpt lat="47.48812" lon="6.97894">
        <ele>416.46</ele>
        <time>2018-01-28T15:32:27Z</time>
      </trkpt>
      <trkpt lat="47.4883" lon="6.979">
        <ele>421.45</ele>
        <time>2018-01-28T15:32:41Z</time>
      </trkpt>
      <trkpt lat="47.48847" lon="6.97914">
        <ele>424.76</ele>
        <time>2018-01-28T15:32:55Z</time>
      </trkpt>
      <trkpt lat="47.48865" lon="6.97927">
        <ele>426.19</ele>
        <time>2018-01-28T15:33:11Z</time>
      </trkpt>
      <trkpt lat="47.48881" lon="6.97946">
        <ele>426.79</ele>
        <time>2018-01-28T15:33:26Z</time>
      </trkpt>
      <trkpt lat="47.48902" lon="6.97949">
        <ele>425.49</ele>
        <time>2018-01-28T15:33:44Z</time>
      </trkpt>
      <trkpt lat="47.48921" lon="6.9795">
        <ele>424.82</ele>
        <time>2018-01-28T15:33:58Z</time>
      </trkpt>
      <trkpt lat="47.48941" lon="6.97954">
        <ele>423.88</ele>
        <time>2018-01-28T15:34:14Z</time>
      </trkpt>
      <trkpt lat="47.48961" lon="6.97958">
        <ele>423.7</ele>
        <time>2018-01-28T15:34:28Z</time>
      </trkpt>
      <trkpt lat="47.4898" lon="6.97963">
        <ele>422.5</ele>
        <time>2018-01-28T15:34:42Z</time>
      </trkpt>
      <trkpt lat="47.48999" lon="6.9797">
        <ele>420.82</ele>
        <time>2018-01-28T15:34:54Z</time>
      </trkpt>
      <trkpt lat="47.4902" lon="6.97972">
        <ele>418.09</ele>
        <time>2018-01-28T15:35:08Z</time>
      </trkpt>
      <trkpt lat="47.49039" lon="6.97973">
        <ele>418.78</ele>
        <time>2018-01-28T15:35:20Z</time>
      </trkpt>
      <trkpt lat="47.49059" lon="6.97979">
        <ele>417.18</ele>
        <time>2018-01-28T15:35:32Z</time>
      </trkpt>
      <trkpt lat="47.49077" lon="6.97987">
        <ele>414.8</ele>
        <time>2018-01-28T15:35:44Z</time>
      </trkpt>
      <trkpt lat="47.49096" lon="6.97999">
        <ele>412.1</ele>
        <time>2018-01-28T15:35:57Z</time>
      </trkpt>
      <trkpt lat="47.49113" lon="6.98011">
        <ele>411.78</ele>
        <time>2018-01-28T15:36:11Z</time>
      </trkpt>
      <trkpt lat="47.49129" lon="6.98025">
        <ele>410.87</ele>
        <time>2018-01-28T15:36:25Z</time>
      </trkpt>
      <trkpt lat="47.49144" lon="6.9804">
        <ele>410.79</ele>
        <time>2018-01-28T15:36:37Z</time>
      </trkpt>
      <trkpt lat="47.49157" lon="6.98059">
        <ele>408.82</ele>
        <time>2018-01-28T15:36:49Z</time>
      </trkpt>
      <trkpt lat="47.4917" lon="6.98081">
        <ele>407.09</ele>
        <time>2018-01-28T15:37:01Z</time>
      </trkpt>
      <trkpt lat="47.49183" lon="6.98101">
        <ele>406.79</ele>
        <time>2018-01-28T15:37:13Z</time>
      </trkpt>
      <trkpt lat="47.49198" lon="6.98121">
        <ele>406.09</ele>
        <time>2018-01-28T15:37:27Z</time>
      </trkpt>
      <trkpt lat="47.49212" lon="6.98141">
        <ele>404.82</ele>
        <time>2018-01-28T15:37:41Z</time>
      </trkpt>
      <trkpt lat="47.49226" lon="6.98158">
        <ele>405.81</ele>
        <time>2018-01-28T15:37:55Z</time>
      </trkpt>
      <trkpt lat="47.49243" lon="6.98175">
        <ele>405.79</ele>
        <time>2018-01-28T15:38:08Z</time>
      </trkpt>
      <trkpt lat="47.49259" lon="6.98194">
        <ele>405.09</ele>
        <time>2018-01-28T15:38:22Z</time>
      </trkpt>
      <trkpt lat="47.49275" lon="6.9821">
        <ele>405.49</ele>
        <time>2018-01-28T15:38:36Z</time>
      </trkpt>
      <trkpt lat="47.4929" lon="6.98225">
        <ele>405.79</ele>
        <time>2018-01-28T15:38:48Z</time>
      </trkpt>
      <trkpt lat="47.49308" lon="6.98217">
        <ele>403.8</ele>
        <time>2018-01-28T15:39:04Z</time>
      </trkpt>
      <trkpt lat="47.49328" lon="6.98212">
        <ele>404.76</ele>
        <time>2018-01-28T15:39:20Z</time>
      </trkpt>
      <trkpt lat="47.49348" lon="6.98222">
        <ele>403.5</ele>
        <time>2018-01-28T15:39:34Z</time>
      </trkpt>
      <trkpt lat="47.49362" lon="6.9824">
        <ele>402.09</ele>
        <time>2018-01-28T15:39:48Z</time>
      </trkpt>
      <trkpt lat="47.49367" lon="6.98267">
        <ele>400.03</ele>
        <time>2018-01-28T15:40:06Z</time>
      </trkpt>
      <trkpt lat="47.49386" lon="6.98266">
        <ele>401.08</ele>
        <time>2018-01-28T15:40:20Z</time>
      </trkpt>
      <trkpt lat="47.49405" lon="6.98275">
        <ele>400</ele>
        <time>2018-01-28T15:40:45Z</time>
      </trkpt>
      <trkpt lat="47.49425" lon="6.98282">
        <ele>399.8</ele>
        <time>2018-01-28T15:41:01Z</time>
      </trkpt>
      <trkpt lat="47.49443" lon="6.98292">
        <ele>398.12</ele>
        <time>2018-01-28T15:41:15Z</time>
      </trkpt>
      <trkpt lat="47.49461" lon="6.98299">
        <ele>397.49</ele>
        <time>2018-01-28T15:41:39Z</time>
      </trkpt>
      <trkpt lat="47.49479" lon="6.98307">
        <ele>397.79</ele>
        <time>2018-01-28T15:41:53Z</time>
      </trkpt>
      <trkpt lat="47.49495" lon="6.98293">
        <ele>397.79</ele>
        <time>2018-01-28T15:42:07Z</time>
      </trkpt>
      <trkpt lat="47.49508" lon="6.98275">
        <ele>398.79</ele>
        <time>2018-01-28T15:42:21Z</time>
      </trkpt>
      <trkpt lat="47.49527" lon="6.98271">
        <ele>397.79</ele>
        <time>2018-01-28T15:42:35Z</time>
      </trkpt>
      <trkpt lat="47.49538" lon="6.98293">
        <ele>395.88</ele>
        <time>2018-01-28T15:42:49Z</time>
      </trkpt>
      <trkpt lat="47.49556" lon="6.98286">
        <ele>393.79</ele>
        <time>2018-01-28T15:43:09Z</time>
      </trkpt>
      <trkpt lat="47.49575" lon="6.98292">
        <ele>393.79</ele>
        <time>2018-01-28T15:43:24Z</time>
      </trkpt>
      <trkpt lat="47.49584" lon="6.98318">
        <ele>396.48</ele>
        <time>2018-01-28T15:43:50Z</time>
      </trkpt>
      <trkpt lat="47.49587" lon="6.98347">
        <ele>398</ele>
        <time>2018-01-28T15:44:04Z</time>
      </trkpt>
      <trkpt lat="47.49599" lon="6.98368">
        <ele>397.79</ele>
        <time>2018-01-28T15:44:16Z</time>
      </trkpt>
      <trkpt lat="47.49612" lon="6.98385">
        <ele>399.49</ele>
        <time>2018-01-28T15:44:30Z</time>
      </trkpt>
      <trkpt lat="47.49626" lon="6.98403">
        <ele>399.89</ele>
        <time>2018-01-28T15:44:44Z</time>
      </trkpt>
      <trkpt lat="47.49636" lon="6.98426">
        <ele>402.69</ele>
        <time>2018-01-28T15:44:56Z</time>
      </trkpt>
      <trkpt lat="47.49649" lon="6.98449">
        <ele>404.7</ele>
        <time>2018-01-28T15:45:10Z</time>
      </trkpt>
      <trkpt lat="47.49662" lon="6.98471">
        <ele>403.79</ele>
        <time>2018-01-28T15:45:22Z</time>
      </trkpt>
      <trkpt lat="47.49673" lon="6.98495">
        <ele>404.76</ele>
        <time>2018-01-28T15:45:34Z</time>
      </trkpt>
      <trkpt lat="47.49683" lon="6.9852">
        <ele>404.76</ele>
        <time>2018-01-28T15:45:46Z</time>
      </trkpt>
      <trkpt lat="47.49692" lon="6.98546">
        <ele>409.36</ele>
        <time>2018-01-28T15:46:00Z</time>
      </trkpt>
      <trkpt lat="47.49701" lon="6.98571">
        <ele>408.09</ele>
        <time>2018-01-28T15:46:12Z</time>
      </trkpt>
      <trkpt lat="47.49712" lon="6.98597">
        <ele>406.1</ele>
        <time>2018-01-28T15:46:26Z</time>
      </trkpt>
      <trkpt lat="47.49719" lon="6.98623">
        <ele>404.8</ele>
        <time>2018-01-28T15:46:40Z</time>
      </trkpt>
      <trkpt lat="47.49728" lon="6.98647">
        <ele>406.7</ele>
        <time>2018-01-28T15:46:54Z</time>
      </trkpt>
      <trkpt lat="47.49736" lon="6.98671">
        <ele>406.79</ele>
        <time>2018-01-28T15:47:06Z</time>
      </trkpt>
      <trkpt lat="47.49744" lon="6.987">
        <ele>408.54</ele>
        <time>2018-01-28T15:47:19Z</time>
      </trkpt>
      <trkpt lat="47.49751" lon="6.98728">
        <ele>407.79</ele>
        <time>2018-01-28T15:47:29Z</time>
      </trkpt>
      <trkpt lat="47.49757" lon="6.98755">
        <ele>407.5</ele>
        <time>2018-01-28T15:47:41Z</time>
      </trkpt>
      <trkpt lat="47.49764" lon="6.98784">
        <ele>406.12</ele>
        <time>2018-01-28T15:47:53Z</time>
      </trkpt>
      <trkpt lat="47.4977" lon="6.98809">
        <ele>405.82</ele>
        <time>2018-01-28T15:48:05Z</time>
      </trkpt>
      <trkpt lat="47.49773" lon="6.98837">
        <ele>404.88</ele>
        <time>2018-01-28T15:48:17Z</time>
      </trkpt>
      <trkpt lat="47.49775" lon="6.98869">
        <ele>405.36</ele>
        <time>2018-01-28T15:48:31Z</time>
      </trkpt>
      <trkpt lat="47.49782" lon="6.98896">
        <ele>402.89</ele>
        <time>2018-01-28T15:48:41Z</time>
      </trkpt>
      <trkpt lat="47.4979" lon="6.98923">
        <ele>400.1</ele>
        <time>2018-01-28T15:48:51Z</time>
      </trkpt>
      <trkpt lat="47.49798" lon="6.98947">
        <ele>396.8</ele>
        <time>2018-01-28T15:49:03Z</time>
      </trkpt>
      <trkpt lat="47.49806" lon="6.98976">
        <ele>396.79</ele>
        <time>2018-01-28T15:49:17Z</time>
      </trkpt>
      <trkpt lat="47.49816" lon="6.99002">
        <ele>396.79</ele>
        <time>2018-01-28T15:49:31Z</time>
      </trkpt>
      <trkpt lat="47.49827" lon="6.99025">
        <ele>395.88</ele>
        <time>2018-01-28T15:49:42Z</time>
      </trkpt>
      <trkpt lat="47.4984" lon="6.99047">
        <ele>394.85</ele>
        <time>2018-01-28T15:49:56Z</time>
      </trkpt>
      <trkpt lat="47.49857" lon="6.99065">
        <ele>396.79</ele>
        <time>2018-01-28T15:50:10Z</time>
      </trkpt>
      <trkpt lat="47.49874" lon="6.99078">
        <ele>397.09</ele>
        <time>2018-01-28T15:50:22Z</time>
      </trkpt>
      <trkpt lat="47.49893" lon="6.99081">
        <ele>396.09</ele>
        <time>2018-01-28T15:50:32Z</time>
      </trkpt>
      <trkpt lat="47.49911" lon="6.99086">
        <ele>396.87</ele>
        <time>2018-01-28T15:50:44Z</time>
      </trkpt>
      <trkpt lat="47.49929" lon="6.99092">
        <ele>396.79</ele>
        <time>2018-01-28T15:50:56Z</time>
      </trkpt>
      <trkpt lat="47.49948" lon="6.99098">
        <ele>398.75</ele>
        <time>2018-01-28T15:51:08Z</time>
      </trkpt>
      <trkpt lat="47.49966" lon="6.99104">
        <ele>400.76</ele>
        <time>2018-01-28T15:51:20Z</time>
      </trkpt>
      <trkpt lat="47.49986" lon="6.99115">
        <ele>402.78</ele>
        <time>2018-01-28T15:51:34Z</time>
      </trkpt>
      <trkpt lat="47.50005" lon="6.99127">
        <ele>401.79</ele>
        <time>2018-01-28T15:51:46Z</time>
      </trkpt>
      <trkpt lat="47.50022" lon="6.99137">
        <ele>399.79</ele>
        <time>2018-01-28T15:51:58Z</time>
      </trkpt>
      <trkpt lat="47.50038" lon="6.99151">
        <ele>398.82</ele>
        <time>2018-01-28T15:52:10Z</time>
      </trkpt>
      <trkpt lat="47.50054" lon="6.99164">
        <ele>398.88</ele>
        <time>2018-01-28T15:52:22Z</time>
      </trkpt>
      <trkpt lat="47.50072" lon="6.99176">
        <ele>398.79</ele>
        <time>2018-01-28T15:52:34Z</time>
      </trkpt>
      <trkpt lat="47.50089" lon="6.99187">
        <ele>397.82</ele>
        <time>2018-01-28T15:52:46Z</time>
      </trkpt>
      <trkpt lat="47.50107" lon="6.99199">
        <ele>397.79</ele>
        <time>2018-01-28T15:53:00Z</time>
      </trkpt>
      <trkpt lat="47.50125" lon="6.99213">
        <ele>397.79</ele>
        <time>2018-01-28T15:53:12Z</time>
      </trkpt>
      <trkpt lat="47.50142" lon="6.99225">
        <ele>396.81</ele>
        <time>2018-01-28T15:53:24Z</time>
      </trkpt>
      <trkpt lat="47.5016" lon="6.99235">
        <ele>396.79</ele>
        <time>2018-01-28T15:53:36Z</time>
      </trkpt>
      <trkpt lat="47.50178" lon="6.99247">
        <ele>397.79</ele>
        <time>2018-01-28T15:53:50Z</time>
      </trkpt>
      <trkpt lat="47.50195" lon="6.99259">
        <ele>397.79</ele>
        <time>2018-01-28T15:54:02Z</time>
      </trkpt>
      <trkpt lat="47.50214" lon="6.99269">
        <ele>397.06</ele>
        <time>2018-01-28T15:54:16Z</time>
      </trkpt>
      <trkpt lat="47.50231" lon="6.99283">
        <ele>398.4</ele>
        <time>2018-01-28T15:54:29Z</time>
      </trkpt>
      <trkpt lat="47.50249" lon="6.99296">
        <ele>398.79</ele>
        <time>2018-01-28T15:54:41Z</time>
      </trkpt>
      <trkpt lat="47.50268" lon="6.99311">
        <ele>396.81</ele>
        <time>2018-01-28T15:54:53Z</time>
      </trkpt>
      <trkpt lat="47.50286" lon="6.99324">
        <ele>395.12</ele>
        <time>2018-01-28T15:55:05Z</time>
      </trkpt>
      <trkpt lat="47.50304" lon="6.99339">
        <ele>393.09</ele>
        <time>2018-01-28T15:55:17Z</time>
      </trkpt>
      <trkpt lat="47.50324" lon="6.99351">
        <ele>392.09</ele>
        <time>2018-01-28T15:55:31Z</time>
      </trkpt>
      <trkpt lat="47.5034" lon="6.99365">
        <ele>390.86</ele>
        <time>2018-01-28T15:55:43Z</time>
      </trkpt>
      <trkpt lat="47.50355" lon="6.99384">
        <ele>391.77</ele>
        <time>2018-01-28T15:55:55Z</time>
      </trkpt>
      <trkpt lat="47.50369" lon="6.99402">
        <ele>390.51</ele>
        <time>2018-01-28T15:56:07Z</time>
      </trkpt>
      <trkpt lat="47.50384" lon="6.99419">
        <ele>389.59</ele>
        <time>2018-01-28T15:56:19Z</time>
      </trkpt>
      <trkpt lat="47.50399" lon="6.99438">
        <ele>391.78</ele>
        <time>2018-01-28T15:56:33Z</time>
      </trkpt>
      <trkpt lat="47.50414" lon="6.99459">
        <ele>390.58</ele>
        <time>2018-01-28T15:56:45Z</time>
      </trkpt>
      <trkpt lat="47.50428" lon="6.99478">
        <ele>389.12</ele>
        <time>2018-01-28T15:56:59Z</time>
      </trkpt>
      <trkpt lat="47.50443" lon="6.99495">
        <ele>387.79</ele>
        <time>2018-01-28T15:57:11Z</time>
      </trkpt>
      <trkpt lat="47.50459" lon="6.9951">
        <ele>386.79</ele>
        <time>2018-01-28T15:57:23Z</time>
      </trkpt>
      <trkpt lat="47.50476" lon="6.99524">
        <ele>383.12</ele>
        <time>2018-01-28T15:57:35Z</time>
      </trkpt>
      <trkpt lat="47.50494" lon="6.99539">
        <ele>381.09</ele>
        <time>2018-01-28T15:57:49Z</time>
      </trkpt>
      <trkpt lat="47.50507" lon="6.99558">
        <ele>379.87</ele>
        <time>2018-01-28T15:58:01Z</time>
      </trkpt>
      <trkpt lat="47.50517" lon="6.99581">
        <ele>381.75</ele>
        <time>2018-01-28T15:58:15Z</time>
      </trkpt>
      <trkpt lat="47.5053" lon="6.99607">
        <ele>381.09</ele>
        <time>2018-01-28T15:58:29Z</time>
      </trkpt>
      <trkpt lat="47.50537" lon="6.99632">
        <ele>378.7</ele>
        <time>2018-01-28T15:58:45Z</time>
      </trkpt>
      <trkpt lat="47.50555" lon="6.99645">
        <ele>377.09</ele>
        <time>2018-01-28T15:58:55Z</time>
      </trkpt>
      <trkpt lat="47.50572" lon="6.99655">
        <ele>373.82</ele>
        <time>2018-01-28T15:59:07Z</time>
      </trkpt>
      <trkpt lat="47.50589" lon="6.99666">
        <ele>373.78</ele>
        <time>2018-01-28T15:59:23Z</time>
      </trkpt>
      <trkpt lat="47.5058" lon="6.9969">
        <ele>370.79</ele>
        <time>2018-01-28T15:59:35Z</time>
      </trkpt>
      <trkpt lat="47.5057" lon="6.99713">
        <ele>372.49</ele>
        <time>2018-01-28T15:59:49Z</time>
      </trkpt>
      <trkpt lat="47.50558" lon="6.99738">
        <ele>376.73</ele>
        <time>2018-01-28T16:00:03Z</time>
      </trkpt>
      <trkpt lat="47.50553" lon="6.99766">
        <ele>376.11</ele>
        <time>2018-01-28T16:00:13Z</time>
      </trkpt>
      <trkpt lat="47.50549" lon="6.99795">
        <ele>373.88</ele>
        <time>2018-01-28T16:00:25Z</time>
      </trkpt>
      <trkpt lat="47.50549" lon="6.99825">
        <ele>371.82</ele>
        <time>2018-01-28T16:00:38Z</time>
      </trkpt>
      <trkpt lat="47.5055" lon="6.99853">
        <ele>373.76</ele>
        <time>2018-01-28T16:00:52Z</time>
      </trkpt>
      <trkpt lat="47.50552" lon="6.99881">
        <ele>374.7</ele>
        <time>2018-01-28T16:01:06Z</time>
      </trkpt>
      <trkpt lat="47.50552" lon="6.9991">
        <ele>380.75</ele>
        <time>2018-01-28T16:01:22Z</time>
      </trkpt>
      <trkpt lat="47.50554" lon="6.99942">
        <ele>381.09</ele>
        <time>2018-01-28T16:01:36Z</time>
      </trkpt>
      <trkpt lat="47.50558" lon="6.99969">
        <ele>374.5</ele>
        <time>2018-01-28T16:01:52Z</time>
      </trkpt>
      <trkpt lat="47.50563" lon="6.99997">
        <ele>382.75</ele>
        <time>2018-01-28T16:02:07Z</time>
      </trkpt>
      <trkpt lat="47.50565" lon="7.00025">
        <ele>382.79</ele>
        <time>2018-01-28T16:02:17Z</time>
      </trkpt>
      <trkpt lat="47.50577" lon="7.00046">
        <ele>377.24</ele>
        <time>2018-01-28T16:02:29Z</time>
      </trkpt>
      <trkpt lat="47.50573" lon="7.00076">
        <ele>374.07</ele>
        <time>2018-01-28T16:02:43Z</time>
      </trkpt>
      <trkpt lat="47.50573" lon="7.00105">
        <ele>373.78</ele>
        <time>2018-01-28T16:02:57Z</time>
      </trkpt>
      <trkpt lat="47.50576" lon="7.00134">
        <ele>373.79</ele>
        <time>2018-01-28T16:03:09Z</time>
      </trkpt>
      <trkpt lat="47.50582" lon="7.00161">
        <ele>374.49</ele>
        <time>2018-01-28T16:03:19Z</time>
      </trkpt>
      <trkpt lat="47.5059" lon="7.00186">
        <ele>372.82</ele>
        <time>2018-01-28T16:03:29Z</time>
      </trkpt>
      <trkpt lat="47.50601" lon="7.00213">
        <ele>371.09</ele>
        <time>2018-01-28T16:03:41Z</time>
      </trkpt>
      <trkpt lat="47.50612" lon="7.00237">
        <ele>370.79</ele>
        <time>2018-01-28T16:03:53Z</time>
      </trkpt>
      <trkpt lat="47.50627" lon="7.00258">
        <ele>371.08</ele>
        <time>2018-01-28T16:04:07Z</time>
      </trkpt>
      <trkpt lat="47.50643" lon="7.00272">
        <ele>369.16</ele>
        <time>2018-01-28T16:04:17Z</time>
      </trkpt>
      <trkpt lat="47.50659" lon="7.00287">
        <ele>367.18</ele>
        <time>2018-01-28T16:04:29Z</time>
      </trkpt>
      <trkpt lat="47.50673" lon="7.00266">
        <ele>366.46</ele>
        <time>2018-01-28T16:04:52Z</time>
      </trkpt>
      <trkpt lat="47.50674" lon="7.00238">
        <ele>368.79</ele>
        <time>2018-01-28T16:05:04Z</time>
      </trkpt>
      <trkpt lat="47.50676" lon="7.00211">
        <ele>368.79</ele>
        <time>2018-01-28T16:05:16Z</time>
      </trkpt>
      <trkpt lat="47.50678" lon="7.00182">
        <ele>369.78</ele>
        <time>2018-01-28T16:05:30Z</time>
      </trkpt>
      <trkpt lat="47.50681" lon="7.00155">
        <ele>370.55</ele>
        <time>2018-01-28T16:05:42Z</time>
      </trkpt>
      <trkpt lat="47.50685" lon="7.00127">
        <ele>371.85</ele>
        <time>2018-01-28T16:05:55Z</time>
      </trkpt>
      <trkpt lat="47.50688" lon="7.001">
        <ele>370.47</ele>
        <time>2018-01-28T16:06:07Z</time>
      </trkpt>
      <trkpt lat="47.50695" lon="7.00073">
        <ele>370.79</ele>
        <time>2018-01-28T16:06:19Z</time>
      </trkpt>
      <trkpt lat="47.50704" lon="7.0005">
        <ele>369.81</ele>
        <time>2018-01-28T16:06:31Z</time>
      </trkpt>
      <trkpt lat="47.50715" lon="7.00027">
        <ele>371.75</ele>
        <time>2018-01-28T16:06:43Z</time>
      </trkpt>
      <trkpt lat="47.50729" lon="7.00003">
        <ele>373.97</ele>
        <time>2018-01-28T16:06:57Z</time>
      </trkpt>
      <trkpt lat="47.50745" lon="6.99988">
        <ele>372.1</ele>
        <time>2018-01-28T16:07:09Z</time>
      </trkpt>
      <trkpt lat="47.5075" lon="6.99963">
        <ele>371.79</ele>
        <time>2018-01-28T16:07:23Z</time>
      </trkpt>
      <trkpt lat="47.50753" lon="6.99936">
        <ele>372.79</ele>
        <time>2018-01-28T16:07:37Z</time>
      </trkpt>
      <trkpt lat="47.50751" lon="6.99906">
        <ele>376.69</ele>
        <time>2018-01-28T16:07:55Z</time>
      </trkpt>
      <trkpt lat="47.50749" lon="6.99879">
        <ele>378.39</ele>
        <time>2018-01-28T16:08:07Z</time>
      </trkpt>
      <trkpt lat="47.50742" lon="6.99854">
        <ele>379.08</ele>
        <time>2018-01-28T16:08:18Z</time>
      </trkpt>
      <trkpt lat="47.50741" lon="6.99826">
        <ele>379.78</ele>
        <time>2018-01-28T16:08:34Z</time>
      </trkpt>
      <trkpt lat="47.50732" lon="6.99803">
        <ele>377.05</ele>
        <time>2018-01-28T16:08:46Z</time>
      </trkpt>
      <trkpt lat="47.50711" lon="6.99803">
        <ele>376.79</ele>
        <time>2018-01-28T16:08:56Z</time>
      </trkpt>
      <trkpt lat="47.50693" lon="6.99807">
        <ele>375.8</ele>
        <time>2018-01-28T16:09:08Z</time>
      </trkpt>
      <trkpt lat="47.50673" lon="6.99801">
        <ele>374.2</ele>
        <time>2018-01-28T16:09:24Z</time>
      </trkpt>
      <trkpt lat="47.50651" lon="6.99801">
        <ele>376.77</ele>
        <time>2018-01-28T16:09:36Z</time>
      </trkpt>
      <trkpt lat="47.50642" lon="6.99777">
        <ele>378.4</ele>
        <time>2018-01-28T16:09:54Z</time>
      </trkpt>
      <trkpt lat="47.50639" lon="6.99749">
        <ele>376.92</ele>
        <time>2018-01-28T16:10:14Z</time>
      </trkpt>
      <trkpt lat="47.50636" lon="6.99719">
        <ele>376.11</ele>
        <time>2018-01-28T16:10:26Z</time>
      </trkpt>
      <trkpt lat="47.50637" lon="6.99691">
        <ele>376.72</ele>
        <time>2018-01-28T16:10:38Z</time>
      </trkpt>
      <trkpt lat="47.50636" lon="6.9966">
        <ele>378.78</ele>
        <time>2018-01-28T16:10:52Z</time>
      </trkpt>
      <trkpt lat="47.5064" lon="6.99632">
        <ele>380.4</ele>
        <time>2018-01-28T16:11:04Z</time>
      </trkpt>
      <trkpt lat="47.50647" lon="6.99604">
        <ele>381.49</ele>
        <time>2018-01-28T16:11:16Z</time>
      </trkpt>
      <trkpt lat="47.50648" lon="6.99575">
        <ele>380.8</ele>
        <time>2018-01-28T16:11:28Z</time>
      </trkpt>
      <trkpt lat="47.50651" lon="6.99548">
        <ele>381.79</ele>
        <time>2018-01-28T16:11:39Z</time>
      </trkpt>
      <trkpt lat="47.50652" lon="6.99521">
        <ele>382.7</ele>
        <time>2018-01-28T16:11:51Z</time>
      </trkpt>
      <trkpt lat="47.50655" lon="6.99492">
        <ele>382.88</ele>
        <time>2018-01-28T16:12:05Z</time>
      </trkpt>
      <trkpt lat="47.50659" lon="6.99466">
        <ele>384.49</ele>
        <time>2018-01-28T16:12:17Z</time>
      </trkpt>
      <trkpt lat="47.5066" lon="6.99439">
        <ele>387.39</ele>
        <time>2018-01-28T16:12:29Z</time>
      </trkpt>
      <trkpt lat="47.50657" lon="6.99411">
        <ele>392.48</ele>
        <time>2018-01-28T16:12:45Z</time>
      </trkpt>
      <trkpt lat="47.50649" lon="6.99385">
        <ele>394.7</ele>
        <time>2018-01-28T16:12:57Z</time>
      </trkpt>
      <trkpt lat="47.50647" lon="6.99357">
        <ele>396.7</ele>
        <time>2018-01-28T16:13:07Z</time>
      </trkpt>
      <trkpt lat="47.50647" lon="6.99328">
        <ele>399.67</ele>
        <time>2018-01-28T16:13:19Z</time>
      </trkpt>
      <trkpt lat="47.50652" lon="6.993">
        <ele>400.49</ele>
        <time>2018-01-28T16:13:31Z</time>
      </trkpt>
      <trkpt lat="47.50666" lon="6.99282">
        <ele>401.76</ele>
        <time>2018-01-28T16:13:43Z</time>
      </trkpt>
      <trkpt lat="47.50682" lon="6.99267">
        <ele>401.81</ele>
        <time>2018-01-28T16:13:55Z</time>
      </trkpt>
      <trkpt lat="47.50698" lon="6.99253">
        <ele>401.79</ele>
        <time>2018-01-28T16:14:07Z</time>
      </trkpt>
      <trkpt lat="47.50715" lon="6.99237">
        <ele>400.8</ele>
        <time>2018-01-28T16:14:20Z</time>
      </trkpt>
      <trkpt lat="47.50731" lon="6.99221">
        <ele>401.77</ele>
        <time>2018-01-28T16:14:32Z</time>
      </trkpt>
      <trkpt lat="47.50746" lon="6.99205">
        <ele>402.78</ele>
        <time>2018-01-28T16:14:44Z</time>
      </trkpt>
      <trkpt lat="47.50764" lon="6.99192">
        <ele>403.49</ele>
        <time>2018-01-28T16:14:56Z</time>
      </trkpt>
      <trkpt lat="47.5081" lon="6.99146">
        <ele>411.78</ele>
        <time>2018-01-28T16:15:33Z</time>
      </trkpt>
      <trkpt lat="47.50822" lon="6.99167">
        <ele>414.13</ele>
        <time>2018-01-28T16:16:56Z</time>
      </trkpt>
    </trkseg>
  </trk>
</gpx>